M I D A S
Marine Information and Data Acquisition System
Tripno 642 of the Zeeleeuw from 2004-02-04 07:15:13 to 2004-02-04 13:43:02
Back to CruiseResearch ActivitiesStationsMapUnderway DataData graphs

EquipmentUnitsComment
TimeDGPSUTC
LatitudeDGPSDM.mWGS84
LongitudeDGPSDM.mWGS84
TemperatureSBE03/SBE38deg celciusITS90
ConductivitySBE21S/mITS90
SalinitySBE21 Practical Salinity Units
ChlorophylAChelsea fluorimeterg/lCalibrated in Aceton
Missing or incorrect values are displayed as -999
Sea surface data collected by the RV Zeeleeuw from 2004-02-04 07:15:13 to 2004-02-04 13:43:02
                                                                                    Next 1000 lines
Time Latitude Longitude Temperature Conductivity Salinity ChlorophylA
2004-02-04 07:15:18 51°13.595 2°56.108 7.758503 3.108934 29.557092 2.488563
2004-02-04 07:15:24 51°13.595 2°56.108 7.757095 3.109776 29.565237 2.522272
2004-02-04 07:15:29 51°13.595 2°56.108 7.757095 3.109776 29.565237 2.522272
2004-02-04 07:15:34 51°13.595 2°56.108 7.753647 3.107565 29.544831 2.454853
2004-02-04 07:15:38 51°13.595 2°56.108 7.756124 3.109355 29.563645 2.522272
2004-02-04 07:15:44 51°13.595 2°56.108 7.758115 3.112408 29.597872 2.488563
2004-02-04 07:15:49 51°13.595 2°56.108 7.752239 3.113461 29.605393 2.522272
2004-02-04 07:15:54 51°13.595 2°56.108 7.753356 3.115462 29.629978 2.65711
2004-02-04 07:15:59 51°13.595 2°56.108 7.753356 3.115462 29.629978 2.65711
2004-02-04 07:16:04 51°13.595 2°56.108 7.751899 3.11683 29.644372 2.589691
2004-02-04 07:16:09 51°13.594 2°56.108 7.751025 3.117462 29.650304 2.454853
2004-02-04 07:16:14 51°13.594 2°56.108 7.751171 3.118726 29.664303 2.488563
2004-02-04 07:16:18 51°13.594 2°56.108 7.747431 3.119463 29.674901 2.522272
2004-02-04 07:16:24 51°13.595 2°56.108 7.747286 3.1202 29.682654 2.488563
2004-02-04 07:16:29 51°13.595 2°56.107 7.75457 3.1202 29.68479 2.488563
2004-02-04 07:16:34 51°13.595 2°56.105 7.75457 3.1202 29.68479 2.488563
2004-02-04 07:16:40 51°13.596 2°56.102 7.798306 3.118831 29.671814 2.522272
2004-02-04 07:16:44 51°13.597 2°56.099 7.80277 3.117567 29.659946 2.555982
2004-02-04 07:16:49 51°13.598 2°56.094 7.806166 3.120516 29.691673 2.488563
2004-02-04 07:16:55 51°13.6 2°56.088 7.81194 3.10388 29.512469 2.488563
2004-02-04 07:17:00 51°13.601 2°56.082 7.81194 3.10388 29.512469 2.488563
2004-02-04 07:17:05 51°13.603 2°56.076 7.851855 2.995551 28.358306 2.724529
2004-02-04 07:17:10 51°13.605 2°56.07 7.864363 2.913239 27.487874 3.095332
2004-02-04 07:17:15 51°13.606 2°56.063 7.862375 2.888506 27.22479 3.19646
2004-02-04 07:17:20 51°13.608 2°56.056 7.865768 2.865879 26.984623 3.499845
2004-02-04 07:17:25 51°13.61 2°56.048 7.873572 2.813788 26.43078 3.836939
2004-02-04 07:17:30 51°13.612 2°56.041 7.884331 2.767279 25.935845 4.308871
2004-02-04 07:17:34 51°13.614 2°56.035 7.884331 2.767279 25.935845 4.308871
2004-02-04 07:17:40 51°13.617 2°56.025 7.892472 2.748656 25.738861 4.612255
2004-02-04 07:17:45 51°13.619 2°56.018 7.898528 2.734873 25.593188 4.578546
2004-02-04 07:17:50 51°13.621 2°56.01 7.901096 2.70552 25.287501 4.612255
2004-02-04 07:17:54 51°13.623 2°56.004 7.897559 2.663755 24.852593 4.612255
2004-02-04 07:18:00 51°13.625 2°55.994 7.897123 2.626096 24.460219 4.713383
2004-02-04 07:18:05 51°13.628 2°55.986 7.897123 2.626096 24.460219 4.713383
2004-02-04 07:18:10 51°13.63 2°55.978 7.905505 2.596119 24.148975 4.645965
2004-02-04 07:18:14 51°13.632 2°55.972 7.924153 2.57014 23.881384 4.679674
2004-02-04 07:18:20 51°13.634 2°55.963 7.929044 2.549 23.666332 4.612255
2004-02-04 07:18:25 51°13.636 2°55.956 7.938341 2.562462 23.803048 4.645965
2004-02-04 07:18:29 51°13.637 2°55.952 7.938341 2.562462 23.803048 4.645965
2004-02-04 07:18:34 51°13.638 2°55.947 7.937567 2.544794 23.618945 4.578546
2004-02-04 07:18:38 51°13.638 2°55.945 7.92856 2.496419 23.119972 4.645965
2004-02-04 07:18:44 51°13.639 2°55.944 7.917954 2.460036 22.745691 4.578546
2004-02-04 07:18:49 51°13.639 2°55.942 7.923184 2.439848 22.536761 4.679674
2004-02-04 07:18:54 51°13.64 2°55.94 7.914079 2.432803 22.464348 4.713383
2004-02-04 07:18:59 51°13.64 2°55.938 7.914079 2.432803 22.464348 4.713383
2004-02-04 07:19:04 51°13.641 2°55.934 7.909574 2.428072 22.41805 4.679674
2004-02-04 07:19:09 51°13.642 2°55.93 7.915193 2.448785 22.631623 4.679674
2004-02-04 07:19:14 51°13.643 2°55.926 7.915774 2.460246 22.748907 4.679674
2004-02-04 07:19:20 51°13.645 2°55.92 7.916985 2.469499 22.84441 4.713383
2004-02-04 07:19:25 51°13.646 2°55.915 7.876286 2.486639 23.021709 4.645965
2004-02-04 07:19:30 51°13.648 2°55.909 7.876286 2.486639 23.021709 4.645965
2004-02-04 07:19:34 51°13.649 2°55.904 7.859418 2.484431 22.999827 4.612255
2004-02-04 07:19:40 51°13.652 2°55.897 7.858788 2.484852 23.0041 4.645965
2004-02-04 07:19:45 51°13.654 2°55.891 7.853067 2.486744 23.023875 4.679674
2004-02-04 07:19:50 51°13.657 2°55.884 7.840993 2.544583 23.621871 4.679674
2004-02-04 07:19:55 51°13.659 2°55.878 7.823437 2.605901 24.261696 4.645965
2004-02-04 07:20:00 51°13.662 2°55.871 7.812473 2.609898 24.310131 4.511127
2004-02-04 07:20:05 51°13.665 2°55.864 7.812473 2.609898 24.310131 4.511127
2004-02-04 07:20:09 51°13.667 2°55.859 7.805002 2.624203 24.461851 4.376289
2004-02-04 07:20:14 51°13.67 2°55.852 7.800829 2.638193 24.61051 4.544836
2004-02-04 07:20:20 51°13.674 2°55.844 7.787338 2.681429 25.066879 4.511127
2004-02-04 07:20:25 51°13.676 2°55.839 7.78729 2.719723 25.468249 4.376289
2004-02-04 07:20:30 51°13.678 2°55.836 7.776126 2.740555 25.688517 4.376289
2004-02-04 07:20:34 51°13.679 2°55.835 7.776126 2.740555 25.688517 4.376289
2004-02-04 07:20:39 51°13.679 2°55.836 7.773942 2.785167 26.154858 4.409999
2004-02-04 07:20:44 51°13.679 2°55.837 7.776077 2.812947 26.450531 4.477418
2004-02-04 07:20:49 51°13.679 2°55.839 7.780737 2.844306 26.777502 4.443708
2004-02-04 07:20:54 51°13.679 2°55.84 7.787047 2.87493 27.104516 4.174033
2004-02-04 07:20:58 51°13.68 2°55.84 7.799082 2.89419 27.308692 4.376289
2004-02-04 07:21:04 51°13.68 2°55.839 7.799082 2.89419 27.308692 4.376289
2004-02-04 07:21:09 51°13.681 2°55.838 7.811794 2.902399 27.396085 4.140324
2004-02-04 07:21:14 51°13.681 2°55.836 7.834204 2.89219 27.288543 4.275161
2004-02-04 07:21:19 51°13.682 2°55.833 7.845746 2.858723 26.936148 4.308871
2004-02-04 07:21:24 51°13.683 2°55.829 7.8568 2.814104 26.466955 4.511127
2004-02-04 07:21:29 51°13.683 2°55.825 7.8568 2.814104 26.466955 4.511127
2004-02-04 07:21:34 51°13.683 2°55.82 7.858158 2.772435 26.030099 4.34258
2004-02-04 07:21:40 51°13.683 2°55.813 7.852825 2.70531 25.324645 4.409999
2004-02-04 07:21:45 51°13.683 2°55.807 7.848558 2.649028 24.737592 4.645965
2004-02-04 07:21:50 51°13.682 2°55.8 7.845794 2.604955 24.27751 4.713383
2004-02-04 07:21:54 51°13.682 2°55.795 7.831052 2.594016 24.160331 4.679674
2004-02-04 07:22:00 51°13.68 2°55.786 7.829791 2.609898 24.321746 4.645965
2004-02-04 07:22:05 51°13.679 2°55.778 7.829791 2.609898 24.321746 4.645965
2004-02-04 07:22:10 51°13.678 2°55.77 7.82009 2.635879 24.589132 4.747093
2004-02-04 07:22:15 51°13.677 2°55.763 7.82528 2.668805 24.931178 4.645965
2004-02-04 07:22:20 51°13.677 2°55.758 7.82853 2.711937 25.379555 4.679674
2004-02-04 07:22:24 51°13.676 2°55.756 7.827608 2.749813 25.771721 4.814512
2004-02-04 07:22:28 51°13.677 2°55.755 7.827608 2.749813 25.771721 4.814512
2004-02-04 07:22:34 51°13.678 2°55.755 7.824213 2.78664 26.158824 4.544836
2004-02-04 07:22:38 51°13.68 2°55.757 7.831779 2.811684 26.419112 4.578546
2004-02-04 07:22:44 51°13.684 2°55.759 7.849091 2.805686 26.356414 4.578546
2004-02-04 07:22:49 51°13.689 2°55.761 7.894216 2.818313 26.486469 4.578546
2004-02-04 07:22:54 51°13.694 2°55.761 7.925703 2.833151 26.641404 4.645965
2004-02-04 07:22:59 51°13.701 2°55.76 7.925703 2.833151 26.641404 4.645965
2004-02-04 07:23:04 51°13.707 2°55.758 7.96061 2.820523 26.509981 4.612255
2004-02-04 07:23:09 51°13.714 2°55.754 8.021955 2.802003 26.307615 4.713383
2004-02-04 07:23:14 51°13.72 2°55.749 8.027564 2.720669 25.448187 4.780802
2004-02-04 07:23:19 51°13.727 2°55.743 8.023358 2.644084 24.642076 4.91564
2004-02-04 07:23:24 51°13.734 2°55.737 8.02887 2.549421 23.654825 4.949349
2004-02-04 07:23:29 51°13.741 2°55.731 8.043325 2.403154 22.1417 5.387571
2004-02-04 07:23:34 51°13.748 2°55.724 8.043325 2.403154 22.1417 5.387571
2004-02-04 07:23:39 51°13.755 2°55.716 8.054829 2.333982 21.429572 5.690956
2004-02-04 07:23:44 51°13.763 2°55.709 8.065703 2.318425 21.267126 5.657247
2004-02-04 07:23:49 51°13.771 2°55.701 8.068312 2.30434 21.121177 5.690956
2004-02-04 07:23:54 51°13.779 2°55.692 8.065075 2.27491 20.820132 5.657247
2004-02-04 07:24:00 51°13.788 2°55.682 8.074835 2.224991 20.313028 5.690956
2004-02-04 07:24:04 51°13.794 2°55.675 8.074835 2.224991 20.313028 5.690956
2004-02-04 07:24:09 51°13.803 2°55.665 8.074835 2.178965 19.848301 5.690956
2004-02-04 07:24:14 51°13.811 2°55.656 8.068747 2.137883 19.436389 5.792084
2004-02-04 07:24:18 51°13.818 2°55.649 8.093483 2.139984 19.455882 5.792084
2004-02-04 07:24:24 51°13.829 2°55.638 8.111352 2.116766 19.223059 5.690956
2004-02-04 07:24:29 51°13.838 2°55.629 8.113477 2.091448 18.970235 6.129178
2004-02-04 07:24:34 51°13.847 2°55.621 8.113477 2.091448 18.970235 6.129178
2004-02-04 07:24:38 51°13.854 2°55.615 8.089715 2.09628 19.018567 5.724665
2004-02-04 07:24:44 51°13.866 2°55.605 8.071115 2.071279 18.765192 5.758375
2004-02-04 07:24:49 51°13.876 2°55.598 8.039845 2.012564 18.177947 5.859503
2004-02-04 07:24:54 51°13.886 2°55.59 8.024035 2.000591 18.055269 5.825794
2004-02-04 07:25:00 51°13.898 2°55.581 7.99487 2.032309 18.369632 5.792084
2004-02-04 07:25:04 51°13.906 2°55.575 7.99487 2.032309 18.369632 5.792084
2004-02-04 07:25:09 51°13.916 2°55.568 7.971355 2.108256 19.130027 5.724665
2004-02-04 07:25:14 51°13.926 2°55.561 7.941682 2.210489 20.159645 5.758375
2004-02-04 07:25:19 51°13.936 2°55.553 7.908266 2.284685 20.912606 5.589828
2004-02-04 07:25:24 51°13.946 2°55.546 7.893441 2.365307 21.735545 5.522409
2004-02-04 07:25:29 51°13.956 2°55.539 7.893441 2.365307 21.735545 5.522409
2004-02-04 07:25:34 51°13.966 2°55.532 7.88501 2.448995 22.596605 5.219024
2004-02-04 07:25:39 51°13.976 2°55.525 7.890292 2.535223 23.49008 5.050477
2004-02-04 07:25:44 51°13.986 2°55.518 7.895185 2.628831 24.463119 4.848221
2004-02-04 07:25:49 51°13.996 2°55.511 7.896203 2.682375 25.025769 4.713383
2004-02-04 07:25:54 51°14.007 2°55.504 7.892957 2.720354 25.425509 4.780802
2004-02-04 07:25:58 51°14.015 2°55.498 7.892957 2.720354 25.425509 4.780802
2004-02-04 07:26:04 51°14.028 2°55.489 7.877886 2.717829 25.401363 4.612255
2004-02-04 07:26:09 51°14.038 2°55.482 7.867223 2.7132 25.353768 4.544836
2004-02-04 07:26:14 51°14.049 2°55.474 7.858303 2.704362 25.262333 4.544836
2004-02-04 07:26:20 51°14.061 2°55.465 7.854861 2.697734 25.196042 4.376289
2004-02-04 07:26:24 51°14.07 2°55.458 7.866399 2.720354 25.432184 4.376289
2004-02-04 07:26:29 51°14.08 2°55.45 7.866399 2.720354 25.432184 4.376289
2004-02-04 07:26:34 51°14.091 2°55.442 7.873475 2.745815 25.70099 4.409999
2004-02-04 07:26:39 51°14.102 2°55.434 7.881763 2.776854 26.029685 4.409999
2004-02-04 07:26:44 51°14.113 2°55.425 7.887917 2.788744 26.158057 4.005486
2004-02-04 07:26:49 51°14.124 2°55.415 7.895088 2.761597 25.876611 4.005486
2004-02-04 07:26:54 51°14.136 2°55.405 7.905311 2.732137 25.569905 4.106614
2004-02-04 07:26:59 51°14.147 2°55.395 7.912577 2.712463 25.36254 4.275161
2004-02-04 07:27:04 51°14.159 2°55.384 7.912577 2.712463 25.36254 4.275161
2004-02-04 07:27:09 51°14.171 2°55.373 7.921199 2.70836 25.3155 4.34258
2004-02-04 07:27:14 51°14.182 2°55.361 7.932289 2.689844 25.120995 4.544836
2004-02-04 07:27:18 51°14.192 2°55.352 7.941053 2.676379 24.97736 4.578546
2004-02-04 07:27:24 51°14.205 2°55.337 7.949912 2.666385 24.869482 4.578546
2004-02-04 07:27:29 51°14.217 2°55.324 7.962159 2.652394 24.720151 4.814512
2004-02-04 07:27:34 51°14.228 2°55.31 7.962159 2.652394 24.720151 4.814512
2004-02-04 07:27:39 51°14.239 2°55.296 7.969855 2.63083 24.493484 4.814512
2004-02-04 07:27:44 51°14.25 2°55.281 7.96274 2.610949 24.28437 5.219024
2004-02-04 07:27:49 51°14.262 2°55.265 7.947589 2.589597 24.059963 5.084187
2004-02-04 07:27:54 51°14.273 2°55.248 7.927979 2.550262 23.652686 5.151606
2004-02-04 07:28:00 51°14.285 2°55.225 7.921828 2.518081 23.318568 5.185315
2004-02-04 07:28:04 51°14.294 2°55.21 7.921828 2.518081 23.318568 5.185315
2004-02-04 07:28:09 51°14.305 2°55.19 7.921392 2.516714 23.304673 5.421281
2004-02-04 07:28:14 51°14.316 2°55.17 7.924589 2.53985 23.546124 5.185315
2004-02-04 07:28:19 51°14.327 2°55.149 7.927785 2.584759 24.012305 5.151606
2004-02-04 07:28:24 51°14.339 2°55.129 7.938196 2.624834 24.428065 5.185315
2004-02-04 07:28:29 51°14.352 2°55.11 7.938196 2.624834 24.428065 5.185315
2004-02-04 07:28:34 51°14.364 2°55.09 7.952527 2.643347 24.620436 5.185315
2004-02-04 07:28:39 51°14.376 2°55.07 7.960223 2.648081 24.668906 5.050477
2004-02-04 07:28:44 51°14.388 2°55.05 7.955625 2.643663 24.62308 5.050477
2004-02-04 07:28:49 51°14.401 2°55.03 7.938438 2.62294 24.406955 5.050477
2004-02-04 07:28:54 51°14.415 2°55.012 7.929238 2.591385 24.077066 5.016768
2004-02-04 07:28:59 51°14.43 2°54.995 7.929238 2.591385 24.077066 5.016768
2004-02-04 07:29:04 51°14.445 2°54.979 7.92856 2.56751 23.827844 5.185315
2004-02-04 07:29:09 51°14.46 2°54.965 7.919019 2.593068 24.08793 5.185315
2004-02-04 07:29:14 51°14.476 2°54.951 7.87997 2.65576 24.733997 5.084187
2004-02-04 07:29:19 51°14.491 2°54.937 7.853115 2.706045 25.253719 4.679674
2004-02-04 07:29:24 51°14.506 2°54.922 7.83047 2.741711 25.623241 4.679674
2004-02-04 07:29:29 51°14.521 2°54.906 7.83047 2.741711 25.623241 4.679674
2004-02-04 07:29:34 51°14.535 2°54.89 7.806846 2.783483 26.058274 4.612255
2004-02-04 07:29:40 51°14.552 2°54.868 7.785931 2.890821 27.187694 4.409999
2004-02-04 07:29:44 51°14.563 2°54.853 7.779038 2.980708 28.142571 4.106614
2004-02-04 07:29:49 51°14.576 2°54.834 7.767145 3.079348 29.191764 3.904358
2004-02-04 07:29:54 51°14.589 2°54.815 7.765834 3.140836 29.854018 3.735811
2004-02-04 07:29:59 51°14.602 2°54.794 7.765834 3.140836 29.854018 3.735811
2004-02-04 07:30:04 51°14.614 2°54.773 7.763164 3.196329 30.457844 3.398717
2004-02-04 07:30:09 51°14.626 2°54.751 7.758357 3.219917 30.720015 3.297589
2004-02-04 07:30:14 51°14.637 2°54.729 7.743983 3.236451 30.905842 3.23017
2004-02-04 07:30:19 51°14.648 2°54.706 7.730286 3.243928 30.990129 3.162751
2004-02-04 07:30:24 51°14.658 2°54.681 7.717461 3.242454 30.980477 2.926785
2004-02-04 07:30:29 51°14.666 2°54.656 7.717461 3.242454 30.980477 2.926785
2004-02-04 07:30:34 51°14.673 2°54.63 7.71576 3.245192 31.013918 3.027913
2004-02-04 07:30:39 51°14.679 2°54.603 7.71197 3.255197 31.129552 2.825657
2004-02-04 07:30:44 51°14.683 2°54.575 7.710075 3.266465 31.257957 2.724529
2004-02-04 07:30:49 51°14.686 2°54.547 7.711679 3.27468 31.355605 2.690819
2004-02-04 07:30:54 51°14.688 2°54.519 7.717315 3.272258 31.335933 2.65711
2004-02-04 07:31:00 51°14.687 2°54.487 7.725574 3.262569 31.239163 2.589691
2004-02-04 07:31:04 51°14.685 2°54.467 7.725574 3.262569 31.239163 2.589691
2004-02-04 07:31:09 51°14.682 2°54.443 7.732569 3.254249 31.153926 2.6234
2004-02-04 07:31:14 51°14.679 2°54.422 7.737329 3.246456 31.072048 2.522272
2004-02-04 07:31:18 51°14.675 2°54.407 7.746946 3.224657 30.840339 2.555982
2004-02-04 07:31:24 51°14.67 2°54.386 7.751656 3.197593 30.548784 2.488563
2004-02-04 07:31:29 51°14.665 2°54.371 7.756027 3.176427 30.319976 2.522272
2004-02-04 07:31:34 51°14.66 2°54.357 7.756027 3.176427 30.319976 2.522272
2004-02-04 07:31:39 51°14.655 2°54.344 7.763747 3.158211 30.122582 2.454853
2004-02-04 07:31:44 51°14.649 2°54.333 7.76365 3.143575 29.962443 2.454853
2004-02-04 07:31:49 51°14.644 2°54.322 7.769475 3.131677 29.832029 2.488563
2004-02-04 07:31:54 51°14.639 2°54.312 7.771417 3.12915 29.801116 2.421144
2004-02-04 07:32:00 51°14.633 2°54.302 7.767873 3.127149 29.773615 2.421144
2004-02-04 07:32:04 51°14.629 2°54.295 7.767873 3.127149 29.773615 2.421144
2004-02-04 07:32:09 51°14.625 2°54.288 7.769524 3.124622 29.742728 2.454853
2004-02-04 07:32:14 51°14.62 2°54.281 7.768262 3.124201 29.735441 2.454853
2004-02-04 07:32:19 51°14.615 2°54.275 7.767388 3.124727 29.738842 2.421144
2004-02-04 07:32:24 51°14.611 2°54.269 7.763164 3.126096 29.753247 2.286306
2004-02-04 07:32:29 51°14.607 2°54.263 7.75792 3.129044 29.783564 2.320016
2004-02-04 07:32:34 51°14.602 2°54.258 7.75792 3.129044 29.783564 2.320016
2004-02-04 07:32:40 51°14.598 2°54.252 7.749471 3.132308 29.819355 2.252597
2004-02-04 07:32:44 51°14.594 2°54.248 7.740584 3.137573 29.874789 2.218888
2004-02-04 07:32:48 51°14.591 2°54.244 7.728732 3.144417 29.949748 2.353725
2004-02-04 07:32:54 51°14.587 2°54.239 7.718433 3.154525 30.059151 2.320016
2004-02-04 07:32:58 51°14.584 2°54.235 7.705653 3.167266 30.197843 2.218888
2004-02-04 07:33:04 51°14.58 2°54.231 7.705653 3.167266 30.197843 2.218888
2004-02-04 07:33:09 51°14.577 2°54.227 7.700308 3.183482 30.374074 2.218888
2004-02-04 07:33:14 51°14.574 2°54.223 7.692774 3.198646 30.543038 2.185178
2004-02-04 07:33:19 51°14.57 2°54.22 7.678629 3.222866 30.808791 2.117759
2004-02-04 07:33:24 51°14.567 2°54.216 7.675955 3.245508 31.059014 2.117759
2004-02-04 07:33:29 51°14.564 2°54.213 7.675955 3.245508 31.059014 2.117759
2004-02-04 07:33:34 51°14.561 2°54.21 7.669148 3.263622 31.257849 2.050341
2004-02-04 07:33:40 51°14.558 2°54.207 7.672114 3.275944 31.394665 2.050341
2004-02-04 07:33:44 51°14.556 2°54.205 7.667252 3.296271 31.622772 2.08405
2004-02-04 07:33:49 51°14.554 2°54.202 7.664383 3.307435 31.746853 2.016631
2004-02-04 07:33:54 51°14.551 2°54.199 7.665161 3.316493 31.847845 2.08405
2004-02-04 07:33:59 51°14.549 2°54.197 7.665161 3.316493 31.847845 2.08405
2004-02-04 07:34:04 51°14.547 2°54.194 7.658742 3.320812 31.896893 1.915503
2004-02-04 07:34:09 51°14.545 2°54.192 7.661611 3.325657 31.9508 1.982922
2004-02-04 07:34:14 51°14.543 2°54.19 7.658888 3.330291 32.002482 1.949212
2004-02-04 07:34:20 51°14.541 2°54.187 7.658158 3.333451 32.037696 1.848084
2004-02-04 07:34:24 51°14.539 2°54.185 7.656554 3.338085 32.090182 1.915503
2004-02-04 07:34:29 51°14.538 2°54.183 7.654073 3.340297 32.113763 1.814375
2004-02-04 07:34:34 51°14.535 2°54.18 7.654073 3.340297 32.113763 1.814375
2004-02-04 07:34:39 51°14.532 2°54.176 7.656699 3.343562 32.150901 1.780665
2004-02-04 07:34:44 51°14.529 2°54.171 7.648869 3.346828 32.186498 1.982922
2004-02-04 07:34:49 51°14.524 2°54.164 7.647215 3.348724 32.208273 1.848084
2004-02-04 07:34:54 51°14.52 2°54.156 7.64814 3.350304 32.22668 1.881794
2004-02-04 07:35:00 51°14.515 2°54.144 7.64775 3.3522 32.246907 1.814375
2004-02-04 07:35:04 51°14.512 2°54.135 7.64775 3.3522 32.246907 1.814375
2004-02-04 07:35:09 51°14.507 2°54.122 7.656359 3.35536 32.282958 2.016631
2004-02-04 07:35:14 51°14.501 2°54.107 7.662243 3.358414 32.317115 1.746956
2004-02-04 07:35:20 51°14.493 2°54.087 7.664772 3.360942 32.346438 1.915503
2004-02-04 07:35:24 51°14.488 2°54.073 7.660493 3.360521 32.34194 1.780665
2004-02-04 07:35:29 51°14.48 2°54.053 7.659034 3.351041 32.237653 1.713247
2004-02-04 07:35:34 51°14.472 2°54.033 7.659034 3.351041 32.237653 1.713247
2004-02-04 07:35:40 51°14.463 2°54.007 7.653976 3.339455 32.10942 1.915503
2004-02-04 07:35:44 51°14.456 2°53.989 7.649453 3.337137 32.083168 1.848084
2004-02-04 07:35:48 51°14.449 2°53.97 7.641233 3.338191 32.092851 1.848084
2004-02-04 07:35:54 51°14.438 2°53.941 7.631698 3.343246 32.149855 1.848084
2004-02-04 07:35:59 51°14.429 2°53.916 7.628827 3.350409 32.22858 1.915503
2004-02-04 07:36:04 51°14.42 2°53.891 7.628827 3.350409 32.22858 1.915503
2004-02-04 07:36:09 51°14.41 2°53.866 7.628876 3.359257 32.328447 1.848084
2004-02-04 07:36:14 51°14.401 2°53.84 7.626832 3.367684 32.424669 1.848084
2004-02-04 07:36:19 51°14.391 2°53.814 7.626492 3.375373 32.511517 1.814375
2004-02-04 07:36:24 51°14.382 2°53.788 7.633352 3.380956 32.576683 1.746956
2004-02-04 07:36:28 51°14.374 2°53.767 7.633352 3.380956 32.576683 1.746956
2004-02-04 07:36:34 51°14.363 2°53.736 7.631892 3.386855 32.643692 1.713247
2004-02-04 07:36:38 51°14.355 2°53.715 7.626978 3.390331 32.680872 1.746956
2004-02-04 07:36:44 51°14.343 2°53.683 7.624691 3.392121 32.700028 1.814375
2004-02-04 07:36:49 51°14.333 2°53.657 7.626054 3.393069 32.708593 1.679537
2004-02-04 07:36:54 51°14.323 2°53.631 7.620653 3.39465 32.726286 1.780665
2004-02-04 07:37:00 51°14.31 2°53.6 7.621139 3.398758 32.771033 1.679537
2004-02-04 07:37:04 51°14.301 2°53.58 7.621139 3.398758 32.771033 1.679537
2004-02-04 07:37:09 51°14.29 2°53.554 7.623134 3.402761 32.817038 1.645828
2004-02-04 07:37:14 51°14.279 2°53.528 7.624935 3.405815 32.848154 1.612118
2004-02-04 07:37:18 51°14.27 2°53.508 7.62946 3.408133 32.877723 1.679537
2004-02-04 07:37:24 51°14.257 2°53.477 7.633352 3.410134 32.899155 1.578409
2004-02-04 07:37:29 51°14.246 2°53.451 7.633352 3.410134 32.899155 1.578409
2004-02-04 07:37:34 51°14.236 2°53.425 7.632865 3.409608 32.893514 1.578409
2004-02-04 07:37:38 51°14.227 2°53.404 7.632427 3.407606 32.870497 1.5447
2004-02-04 07:37:44 51°14.215 2°53.372 7.630676 3.405499 32.845563 1.612118
2004-02-04 07:37:50 51°14.202 2°53.34 7.628827 3.40413 32.826945 1.51099
2004-02-04 07:37:54 51°14.194 2°53.319 7.628535 3.404657 32.83179 1.443571
2004-02-04 07:37:59 51°14.184 2°53.292 7.628535 3.404657 32.83179 1.443571
2004-02-04 07:38:04 51°14.173 2°53.265 7.624302 3.406447 32.850958 1.578409
2004-02-04 07:38:09 51°14.163 2°53.238 7.620847 3.407712 32.862904 1.578409
2004-02-04 07:38:14 51°14.153 2°53.212 7.618609 3.410345 32.893475 1.578409
2004-02-04 07:38:20 51°14.14 2°53.18 7.618755 3.413716 32.93195 1.578409
2004-02-04 07:38:24 51°14.132 2°53.158 7.623475 3.416771 32.967847 1.51099
2004-02-04 07:38:29 51°14.122 2°53.132 7.619096 3.419194 32.996984 1.51099
2004-02-04 07:38:34 51°14.111 2°53.105 7.619096 3.419194 32.996984 1.51099
2004-02-04 07:38:38 51°14.103 2°53.083 7.622697 3.420985 33.018561 1.51099
2004-02-04 07:38:44 51°14.091 2°53.051 7.621091 3.422143 33.031774 1.477281
2004-02-04 07:38:48 51°14.082 2°53.03 7.623134 3.421827 33.028388 1.51099
2004-02-04 07:38:54 51°14.07 2°52.998 7.62367 3.421722 33.026462 1.51099
2004-02-04 07:38:59 51°14.06 2°52.971 7.625178 3.422038 33.029051 1.241315
2004-02-04 07:39:04 51°14.049 2°52.944 7.625178 3.422038 33.029051 1.241315
2004-02-04 07:39:08 51°14.041 2°52.923 7.624156 3.421617 33.024536 1.578409
2004-02-04 07:39:14 51°14.029 2°52.89 7.623767 3.421406 33.021482 1.578409
2004-02-04 07:39:19 51°14.019 2°52.864 7.619193 3.420669 33.013581 1.443571
2004-02-04 07:39:24 51°14.008 2°52.837 7.625081 3.419721 33.00422 1.5447
2004-02-04 07:39:30 51°13.996 2°52.804 7.624302 3.419615 33.002295 1.51099
2004-02-04 07:39:34 51°13.988 2°52.783 7.624302 3.419615 33.002295 1.51099
2004-02-04 07:39:39 51°13.978 2°52.756 7.62328 3.419721 33.002627 1.409862
2004-02-04 07:39:44 51°13.968 2°52.729 7.62367 3.419826 33.004552 1.376153
2004-02-04 07:39:48 51°13.959 2°52.708 7.623378 3.418772 32.993266 1.477281
2004-02-04 07:39:54 51°13.947 2°52.676 7.622891 3.418562 32.991805 1.443571
2004-02-04 07:39:59 51°13.937 2°52.649 7.62474 3.418456 32.98988 1.443571
2004-02-04 07:40:04 51°13.926 2°52.623 7.62474 3.418456 32.98988 1.443571
2004-02-04 07:40:10 51°13.914 2°52.591 7.624691 3.418035 32.985366 1.409862
2004-02-04 07:40:14 51°13.906 2°52.569 7.626638 3.417192 32.975542 1.443571
2004-02-04 07:40:19 51°13.895 2°52.543 7.630092 3.417508 32.979724 1.409862
2004-02-04 07:40:24 51°13.885 2°52.515 7.633498 3.417087 32.973618 1.5447
2004-02-04 07:40:28 51°13.877 2°52.494 7.636952 3.416666 32.9699 1.409862
2004-02-04 07:40:34 51°13.865 2°52.462 7.636952 3.416666 32.9699 1.409862
2004-02-04 07:40:39 51°13.854 2°52.435 7.638362 3.415928 32.961206 1.409862
2004-02-04 07:40:44 51°13.844 2°52.408 7.640114 3.414348 32.942692 1.342443
2004-02-04 07:40:50 51°13.832 2°52.376 7.64133 3.412557 32.92113 1.409862
2004-02-04 07:40:54 51°13.823 2°52.355 7.639433 3.411398 32.903959 1.409862
2004-02-04 07:40:59 51°13.813 2°52.328 7.639335 3.410556 32.892557 1.443571
2004-02-04 07:41:04 51°13.802 2°52.301 7.639335 3.410556 32.892557 1.443571
2004-02-04 07:41:10 51°13.79 2°52.269 7.634325 3.41024 32.886794 1.376153
2004-02-04 07:41:14 51°13.782 2°52.247 7.637292 3.41045 32.889843 1.477281
2004-02-04 07:41:20 51°13.769 2°52.215 7.627854 3.411398 32.899992 1.51099
2004-02-04 07:41:24 51°13.761 2°52.193 7.626784 3.412768 32.915446 1.51099
2004-02-04 07:41:29 51°13.751 2°52.166 7.626784 3.412768 32.915446 1.51099
2004-02-04 07:41:34 51°13.74 2°52.14 7.6298 3.414769 32.938463 1.342443
2004-02-04 07:41:39 51°13.73 2°52.114 7.632768 3.415823 32.952127 1.443571
2004-02-04 07:41:44 51°13.72 2°52.087 7.632963 3.41656 32.960819 1.5447
2004-02-04 07:41:49 51°13.71 2°52.06 7.635687 3.41656 32.964 1.376153
2004-02-04 07:41:54 51°13.699 2°52.033 7.637438 3.416139 32.961077 1.443571
2004-02-04 07:41:58 51°13.691 2°52.012 7.636854 3.415296 32.949666 1.308734
2004-02-04 07:42:04 51°13.679 2°51.979 7.636854 3.415296 32.949666 1.308734
2004-02-04 07:42:09 51°13.669 2°51.952 7.640649 3.414137 32.935668 1.443571
2004-02-04 07:42:14 51°13.658 2°51.926 7.645805 3.412873 32.920543 1.308734
2004-02-04 07:42:20 51°13.646 2°51.894 7.6424 3.412031 32.909933 1.308734
2004-02-04 07:42:24 51°13.638 2°51.872 7.645416 3.411609 32.905421 1.275024
2004-02-04 07:42:29 51°13.627 2°51.845 7.649647 3.410766 32.894019 1.308734
2004-02-04 07:42:34 51°13.617 2°51.819 7.649647 3.410766 32.894019 1.308734
2004-02-04 07:42:39 51°13.607 2°51.791 7.652225 3.409502 32.878901 1.409862
2004-02-04 07:42:44 51°13.597 2°51.765 7.655532 3.408976 32.870886 1.342443
2004-02-04 07:42:49 51°13.586 2°51.738 7.658012 3.407711 32.856565 1.275024
2004-02-04 07:42:54 51°13.576 2°51.711 7.655921 3.406342 32.839534 1.275024
2004-02-04 07:43:00 51°13.563 2°51.679 7.657234 3.405183 32.824761 1.241315
2004-02-04 07:43:04 51°13.555 2°51.657 7.657234 3.405183 32.824761 1.241315
2004-02-04 07:43:09 51°13.545 2°51.63 7.658499 3.404024 32.809991 1.308734
2004-02-04 07:43:14 51°13.535 2°51.603 7.65456 3.403498 32.801984 1.308734
2004-02-04 07:43:18 51°13.527 2°51.582 7.657818 3.403498 32.801194 1.275024
2004-02-04 07:43:24 51°13.515 2°51.549 7.655484 3.403498 32.800403 1.241315
2004-02-04 07:43:28 51°13.507 2°51.527 7.655484 3.403498 32.800403 1.241315
2004-02-04 07:43:34 51°13.495 2°51.494 7.651982 3.403814 32.802202 1.207606
2004-02-04 07:43:39 51°13.486 2°51.467 7.642497 3.404867 32.81426 1.342443
2004-02-04 07:43:44 51°13.476 2°51.44 7.633498 3.405921 32.826319 1.275024
2004-02-04 07:43:49 51°13.466 2°51.413 7.62946 3.406974 32.837588 1.140187
2004-02-04 07:43:54 51°13.455 2°51.386 7.628146 3.408343 32.854615 1.173896
2004-02-04 07:43:59 51°13.445 2°51.358 7.623767 3.405183 32.825552 1.342443
2004-02-04 07:44:04 51°13.435 2°51.331 7.623767 3.405183 32.825552 1.342443
2004-02-04 07:44:09 51°13.425 2°51.304 7.625178 3.414243 32.929647 1.308734
2004-02-04 07:44:14 51°13.415 2°51.277 7.624789 3.41635 32.957768 1.207606
2004-02-04 07:44:20 51°13.404 2°51.244 7.624351 3.418035 32.979796 1.308734
2004-02-04 07:44:24 51°13.396 2°51.222 7.62693 3.419826 33.001367 1.241315
2004-02-04 07:44:29 51°13.386 2°51.194 7.626297 3.420353 33.008602 1.173896
2004-02-04 07:44:34 51°13.377 2°51.167 7.626297 3.420353 33.008602 1.173896
2004-02-04 07:44:40 51°13.365 2°51.134 7.624156 3.420774 33.013117 1.207606
2004-02-04 07:44:44 51°13.357 2°51.112 7.623767 3.420985 33.016171 1.342443
2004-02-04 07:44:49 51°13.347 2°51.085 7.626784 3.421301 33.019557 1.241315
2004-02-04 07:44:54 51°13.336 2°51.057 7.624594 3.421722 33.024071 1.241315
2004-02-04 07:44:59 51°13.326 2°51.03 7.624594 3.421722 33.024071 1.241315
2004-02-04 07:45:04 51°13.316 2°51.003 7.625908 3.422459 33.030378 1.207606
2004-02-04 07:45:09 51°13.306 2°50.976 7.62727 3.423302 33.042597 1.275024
2004-02-04 07:45:14 51°13.296 2°50.948 7.631357 3.423934 33.04937 1.207606
2004-02-04 07:45:19 51°13.286 2°50.921 7.630676 3.424672 33.057272 1.275024
2004-02-04 07:45:24 51°13.277 2°50.893 7.631454 3.424566 33.055346 1.241315
2004-02-04 07:45:29 51°13.267 2°50.866 7.631065 3.424882 33.057935 1.207606
2004-02-04 07:45:34 51°13.257 2°50.838 7.631065 3.424882 33.057935 1.207606
2004-02-04 07:45:38 51°13.249 2°50.817 7.628049 3.424777 33.054413 1.140187
2004-02-04 07:45:44 51°13.237 2°50.784 7.6262 3.425304 33.058462 1.173896
2004-02-04 07:45:49 51°13.227 2°50.757 7.628633 3.42583 33.064106 1.106477
2004-02-04 07:45:54 51°13.217 2°50.73 7.633887 3.427094 33.077652 1.241315
2004-02-04 07:46:00 51°13.205 2°50.697 7.636952 3.428569 33.094255 1.207606
2004-02-04 07:46:04 51°13.197 2°50.675 7.636952 3.428569 33.094255 1.207606
2004-02-04 07:46:09 51°13.187 2°50.648 7.639919 3.430149 33.112787 1.275024
2004-02-04 07:46:14 51°13.177 2°50.621 7.640795 3.430465 33.116175 1.207606
2004-02-04 07:46:18 51°13.169 2°50.599 7.642011 3.430571 33.115706 1.106477
2004-02-04 07:46:24 51°13.157 2°50.566 7.642254 3.430992 33.117026 1.207606
2004-02-04 07:46:29 51°13.147 2°50.539 7.639968 3.431624 33.119006 1.173896
2004-02-04 07:46:34 51°13.137 2°50.511 7.639968 3.431624 33.119006 1.173896
2004-02-04 07:46:39 51°13.128 2°50.484 7.635249 3.432572 33.127568 1.173896
2004-02-04 07:46:44 51°13.118 2°50.457 7.630579 3.433731 33.139986 1.173896
2004-02-04 07:46:49 51°13.108 2°50.43 7.626978 3.43489 33.150005 1.173896
2004-02-04 07:46:54 51°13.098 2°50.403 7.623183 3.436575 33.169668 1.140187
2004-02-04 07:47:00 51°13.086 2°50.37 7.621431 3.438893 33.198511 1.072768
2004-02-04 07:47:04 51°13.078 2°50.348 7.621431 3.438893 33.198511 1.072768
2004-02-04 07:47:08 51°13.07 2°50.326 7.61929 3.440895 33.223976 1.173896
2004-02-04 07:47:14 51°13.058 2°50.294 7.615592 3.442369 33.241394 1.072768
2004-02-04 07:47:18 51°13.05 2°50.272 7.612137 3.444476 33.267199 1.106477
2004-02-04 07:47:24 51°13.038 2°50.239 7.609314 3.446162 33.288491 1.140187
2004-02-04 07:47:29 51°13.028 2°50.212 7.610385 3.447426 33.303659 1.106477
2004-02-04 07:47:34 51°13.018 2°50.185 7.610385 3.447426 33.303659 1.106477
2004-02-04 07:47:40 51°13.006 2°50.152 7.607562 3.448901 33.324308 1.072768
2004-02-04 07:47:44 51°12.998 2°50.13 7.605713 3.449638 33.334636 1.072768
2004-02-04 07:47:49 51°12.988 2°50.104 7.60581 3.451008 33.350139 1.207606
2004-02-04 07:47:54 51°12.978 2°50.076 7.606297 3.45164 33.357728 1.005349
2004-02-04 07:48:00 51°12.966 2°50.044 7.606297 3.45164 33.357728 1.005349
2004-02-04 07:48:04 51°12.958 2°50.022 7.6025 3.452694 33.370647 1.106477
2004-02-04 07:48:09 51°12.949 2°49.995 7.600991 3.453747 33.383568 1.039059
2004-02-04 07:48:14 51°12.939 2°49.968 7.600602 3.454695 33.396165 1.106477
2004-02-04 07:48:20 51°12.926 2°49.936 7.594371 3.455433 33.405696 1.072768
2004-02-04 07:48:24 51°12.918 2°49.914 7.594712 3.455854 33.411028 1.072768
2004-02-04 07:48:29 51°12.909 2°49.887 7.594712 3.455854 33.411028 1.072768
2004-02-04 07:48:34 51°12.899 2°49.86 7.594712 3.456908 33.423955 1.106477
2004-02-04 07:48:39 51°12.889 2°49.833 7.592473 3.457434 33.431227 1.106477
2004-02-04 07:48:44 51°12.879 2°49.806 7.590087 3.458277 33.442701 1.039059
2004-02-04 07:48:49 51°12.869 2°49.779 7.589454 3.458804 33.449975 1.072768
2004-02-04 07:48:54 51°12.859 2°49.751 7.590087 3.459225 33.454502 1.072768
2004-02-04 07:48:58 51°12.852 2°49.73 7.587361 3.459647 33.461453 1.106477
2004-02-04 07:49:04 51°12.84 2°49.697 7.587361 3.459647 33.461453 1.106477
2004-02-04 07:49:09 51°12.83 2°49.67 7.586777 3.460279 33.469861 1.039059
2004-02-04 07:49:14 51°12.82 2°49.643 7.585073 3.46049 33.472933 1.072768
2004-02-04 07:49:20 51°12.808 2°49.611 7.585657 3.460806 33.477946 1.072768
2004-02-04 07:49:24 51°12.8 2°49.59 7.582638 3.461122 33.48296 1.072768
2004-02-04 07:49:28 51°12.792 2°49.568 7.577283 3.461332 33.486843 1.005349
2004-02-04 07:49:34 51°12.781 2°49.536 7.577283 3.461332 33.486843 1.005349
2004-02-04 07:49:40 51°12.769 2°49.504 7.574799 3.462175 33.4959 1.072768
2004-02-04 07:49:44 51°12.761 2°49.482 7.572949 3.462702 33.50156 1.039059
2004-02-04 07:49:49 51°12.751 2°49.455 7.569296 3.462913 33.507063 1.072768
2004-02-04 07:49:54 51°12.741 2°49.428 7.567251 3.46365 33.5158 1.072768
2004-02-04 07:49:59 51°12.732 2°49.401 7.566764 3.464388 33.528588 1.072768
2004-02-04 07:50:04 51°12.722 2°49.374 7.566764 3.464388 33.528588 1.072768
2004-02-04 07:50:09 51°12.712 2°49.347 7.566521 3.464914 33.535061 1.106477
2004-02-04 07:50:14 51°12.702 2°49.32 7.56842 3.46502 33.539437 1.072768
2004-02-04 07:50:20 51°12.69 2°49.287 7.57027 3.465336 33.54689 1.106477
2004-02-04 07:50:24 51°12.683 2°49.266 7.5673 3.465757 33.552233 1.072768
2004-02-04 07:50:30 51°12.671 2°49.234 7.571488 3.465547 33.550778 1.106477
2004-02-04 07:50:34 51°12.663 2°49.213 7.571488 3.465547 33.550778 1.106477
2004-02-04 07:50:39 51°12.653 2°49.186 7.571342 3.465441 33.548834 1.106477
2004-02-04 07:50:44 51°12.643 2°49.159 7.567787 3.465336 33.546079 1.106477
2004-02-04 07:50:48 51°12.635 2°49.137 7.56915 3.465441 33.547212 1.106477
2004-02-04 07:50:54 51°12.623 2°49.105 7.567056 3.465336 33.545268 1.140187
2004-02-04 07:51:00 51°12.611 2°49.073 7.561748 3.465231 33.544135 1.072768
2004-02-04 07:51:04 51°12.603 2°49.051 7.561748 3.465231 33.544135 1.072768
2004-02-04 07:51:09 51°12.594 2°49.024 7.556244 3.464914 33.540736 1.106477
2004-02-04 07:51:14 51°12.584 2°48.997 7.552347 3.464809 33.541225 1.039059
2004-02-04 07:51:19 51°12.575 2°48.97 7.551129 3.464809 33.541225 1.005349
2004-02-04 07:51:24 51°12.565 2°48.944 7.548012 3.464177 33.538482 1.005349
2004-02-04 07:51:29 51°12.555 2°48.917 7.551178 3.464282 33.543671 1.005349
2004-02-04 07:51:34 51°12.545 2°48.89 7.551178 3.464282 33.543671 1.005349
2004-02-04 07:51:38 51°12.537 2°48.869 7.555513 3.464177 33.544971 0.97164
2004-02-04 07:51:44 51°12.525 2°48.837 7.554685 3.463545 33.542228 0.904221
2004-02-04 07:51:49 51°12.515 2°48.81 7.555465 3.463334 33.542395 1.039059
2004-02-04 07:51:54 51°12.505 2°48.783 7.552688 3.463229 33.539639 0.93793
2004-02-04 07:51:58 51°12.498 2°48.762 7.552688 3.463229 33.539639 0.93793
2004-02-04 07:52:04 51°12.486 2°48.729 7.548353 3.462913 33.535428 0.97164
2004-02-04 07:52:09 51°12.477 2°48.702 7.544114 3.462597 33.531217 0.97164
2004-02-04 07:52:14 51°12.467 2°48.675 7.537099 3.462808 33.532673 0.93793
2004-02-04 07:52:19 51°12.457 2°48.649 7.534419 3.462702 33.533162 1.039059
2004-02-04 07:52:24 51°12.447 2°48.622 7.530764 3.462808 33.536729 1.005349
2004-02-04 07:52:29 51°12.437 2°48.595 7.527987 3.46207 33.532851 0.93793
2004-02-04 07:52:34 51°12.427 2°48.569 7.527987 3.46207 33.532851 0.93793
2004-02-04 07:52:40 51°12.416 2°48.536 7.522236 3.461333 33.529784 1.039059
2004-02-04 07:52:44 51°12.408 2°48.515 7.521262 3.461017 33.53044 0.97164
2004-02-04 07:52:49 51°12.399 2°48.488 7.526184 3.46049 33.52964 0.904221
2004-02-04 07:52:54 51°12.389 2°48.461 7.521895 3.46049 33.532075 0.904221
2004-02-04 07:53:00 51°12.377 2°48.428 7.521457 3.46028 33.53143 0.93793
2004-02-04 07:53:04 51°12.369 2°48.407 7.521457 3.46028 33.53143 0.93793
2004-02-04 07:53:09 51°12.36 2°48.38 7.52248 3.459753 33.528196 0.904221
2004-02-04 07:53:14 51°12.349 2°48.353 7.523211 3.459648 33.527873 0.93793
2004-02-04 07:53:20 51°12.338 2°48.321 7.52287 3.459858 33.532577 1.072768
2004-02-04 07:53:24 51°12.33 2°48.299 7.524965 3.459542 33.529986 1.005349
2004-02-04 07:53:29 51°12.321 2°48.272 7.524381 3.459753 33.531443 0.904221
2004-02-04 07:53:34 51°12.311 2°48.245 7.524381 3.459753 33.531443 0.904221
2004-02-04 07:53:38 51°12.303 2°48.223 7.52477 3.459858 33.531765 0.870512
2004-02-04 07:53:44 51°12.292 2°48.191 7.525843 3.460069 33.534845 0.904221
2004-02-04 07:53:49 51°12.282 2°48.164 7.525843 3.460069 33.534033 0.870512
2004-02-04 07:53:54 51°12.273 2°48.137 7.527938 3.460069 33.534033 1.005349
2004-02-04 07:54:00 51°12.261 2°48.105 7.528572 3.460385 33.536624 0.93793
2004-02-04 07:54:04 51°12.253 2°48.083 7.528572 3.460385 33.536624 0.93793
2004-02-04 07:54:09 51°12.243 2°48.057 7.528913 3.46049 33.536946 0.870512
2004-02-04 07:54:14 51°12.233 2°48.03 7.527987 3.460596 33.536456 0.93793
2004-02-04 07:54:19 51°12.223 2°48.003 7.527792 3.460912 33.539858 0.97164
2004-02-04 07:54:24 51°12.214 2°47.976 7.528864 3.460806 33.538724 0.870512
2004-02-04 07:54:29 51°12.204 2°47.949 7.529692 3.460701 33.536778 1.039059
2004-02-04 07:54:34 51°12.195 2°47.922 7.529692 3.460701 33.536778 1.039059
2004-02-04 07:54:40 51°12.183 2°47.89 7.531836 3.46049 33.53451 0.97164
2004-02-04 07:54:44 51°12.176 2°47.868 7.531885 3.460385 33.531753 0.97164
2004-02-04 07:54:49 51°12.166 2°47.841 7.530569 3.460174 33.530296 1.005349
2004-02-04 07:54:54 51°12.157 2°47.814 7.531349 3.459753 33.526572 1.005349
2004-02-04 07:55:00 51°12.145 2°47.782 7.531349 3.459753 33.526572 1.005349
2004-02-04 07:55:04 51°12.137 2°47.761 7.53091 3.459542 33.522681 0.97164
2004-02-04 07:55:10 51°12.126 2°47.729 7.530618 3.459226 33.518468 0.870512
2004-02-04 07:55:14 51°12.118 2°47.707 7.533152 3.459015 33.517012 0.904221
2004-02-04 07:55:19 51°12.109 2°47.681 7.532275 3.458805 33.514744 0.836802
2004-02-04 07:55:24 51°12.099 2°47.653 7.534126 3.458699 33.512799 0.97164
2004-02-04 07:55:29 51°12.09 2°47.626 7.534126 3.458699 33.512799 0.97164
2004-02-04 07:55:34 51°12.082 2°47.598 7.538901 3.458489 33.510531 0.803093
2004-02-04 07:55:40 51°12.071 2°47.565 7.541678 3.458489 33.510531 0.904221
2004-02-04 07:55:44 51°12.064 2°47.544 7.540899 3.458067 33.504374 0.97164
2004-02-04 07:55:48 51°12.057 2°47.522 7.542653 3.457962 33.50324 0.836802
2004-02-04 07:55:54 51°12.047 2°47.489 7.545235 3.457646 33.497407 0.97164
2004-02-04 07:55:58 51°12.04 2°47.467 7.545235 3.457646 33.497407 0.97164
2004-02-04 07:56:04 51°12.029 2°47.434 7.545819 3.457224 33.491251 0.93793
2004-02-04 07:56:09 51°12.021 2°47.406 7.547573 3.457014 33.486553 0.870512
2004-02-04 07:56:14 51°12.012 2°47.379 7.548012 3.456698 33.483153 0.93793
2004-02-04 07:56:19 51°12.003 2°47.351 7.54806 3.456803 33.481855 0.93793
2004-02-04 07:56:24 51°11.994 2°47.324 7.549473 3.456698 33.479102 0.93793
2004-02-04 07:56:29 51°11.986 2°47.296 7.54996 3.456487 33.475215 0.803093
2004-02-04 07:56:34 51°11.977 2°47.269 7.54996 3.456487 33.475215 0.803093
2004-02-04 07:56:39 51°11.969 2°47.241 7.55074 3.456592 33.474729 0.904221
2004-02-04 07:56:44 51°11.96 2°47.214 7.550593 3.456487 33.474406 0.870512
2004-02-04 07:56:49 51°11.951 2°47.186 7.551763 3.456381 33.472463 0.836802
2004-02-04 07:56:54 51°11.943 2°47.159 7.550496 3.456487 33.471976 0.97164
2004-02-04 07:57:00 51°11.932 2°47.126 7.552737 3.456276 33.46971 0.904221
2004-02-04 07:57:04 51°11.925 2°47.104 7.552737 3.456276 33.46971 0.904221
2004-02-04 07:57:09 51°11.916 2°47.076 7.550691 3.456065 33.467444 0.904221
2004-02-04 07:57:14 51°11.908 2°47.049 7.551714 3.456065 33.465824 1.005349
2004-02-04 07:57:19 51°11.899 2°47.021 7.54996 3.456065 33.466634 0.904221
2004-02-04 07:57:24 51°11.891 2°46.994 7.548645 3.455644 33.462102 0.904221
2004-02-04 07:57:30 51°11.88 2°46.961 7.549571 3.455855 33.463558 0.836802
2004-02-04 07:57:34 51°11.874 2°46.939 7.549571 3.455855 33.463558 0.836802
2004-02-04 07:57:39 51°11.865 2°46.911 7.547671 3.455539 33.460159 0.870512
2004-02-04 07:57:44 51°11.856 2°46.884 7.548986 3.455433 33.460645 0.97164
2004-02-04 07:57:48 51°11.849 2°46.862 7.548694 3.455328 33.458703 0.769383
2004-02-04 07:57:54 51°11.839 2°46.829 7.549181 3.455012 33.456113 0.93793
2004-02-04 07:57:59 51°11.83 2°46.801 7.548499 3.455117 33.458865 0.93793
2004-02-04 07:58:04 51°11.821 2°46.774 7.548499 3.455117 33.458865 0.93793
2004-02-04 07:58:10 51°11.81 2°46.741 7.547524 3.455117 33.458055 0.97164
2004-02-04 07:58:14 51°11.803 2°46.719 7.547914 3.454696 33.455142 1.039059
2004-02-04 07:58:19 51°11.794 2°46.692 7.546648 3.454801 33.454656 0.93793
2004-02-04 07:58:24 51°11.785 2°46.665 7.545625 3.454907 33.456599 1.005349
2004-02-04 07:58:28 51°11.778 2°46.643 7.545625 3.454907 33.456599 1.005349
2004-02-04 07:58:34 51°11.768 2°46.61 7.544748 3.454696 33.454332 0.870512
2004-02-04 07:58:39 51°11.76 2°46.582 7.544553 3.454591 33.454009 0.904221
2004-02-04 07:58:44 51°11.751 2°46.555 7.541191 3.454591 33.454009 0.904221
2004-02-04 07:58:49 51°11.742 2°46.527 7.541045 3.454801 33.456275 0.904221
2004-02-04 07:58:54 51°11.734 2°46.5 7.539924 3.455012 33.46097 0.870512
2004-02-04 07:59:00 51°11.724 2°46.467 7.539924 3.455012 33.46097 0.870512
2004-02-04 07:59:04 51°11.717 2°46.445 7.542312 3.455223 33.463236 0.904221
2004-02-04 07:59:09 51°11.708 2°46.417 7.540704 3.455223 33.463236 0.97164
2004-02-04 07:59:14 51°11.7 2°46.389 7.540217 3.455433 33.467122 0.870512
2004-02-04 07:59:20 51°11.69 2°46.356 7.539681 3.455223 33.467285 0.836802
2004-02-04 07:59:24 51°11.683 2°46.334 7.53934 3.455539 33.470685 1.005349
2004-02-04 07:59:29 51°11.674 2°46.306 7.539632 3.455644 33.471009 1.005349
2004-02-04 07:59:34 51°11.666 2°46.278 7.539632 3.455644 33.471009 1.005349
2004-02-04 07:59:38 51°11.659 2°46.256 7.538365 3.455644 33.471819 0.93793
2004-02-04 07:59:44 51°11.648 2°46.223 7.537878 3.455539 33.471495 0.803093
2004-02-04 07:59:48 51°11.642 2°46.201 7.538999 3.455644 33.471819 0.93793
2004-02-04 07:59:54 51°11.631 2°46.167 7.540022 3.455539 33.471495 0.870512
2004-02-04 08:00:00 51°11.621 2°46.134 7.537586 3.455539 33.472305 0.870512
2004-02-04 08:00:04 51°11.614 2°46.112 7.537586 3.455539 33.472305 0.870512
2004-02-04 08:00:09 51°11.606 2°46.084 7.536222 3.45596 33.476839 0.904221
2004-02-04 08:00:14 51°11.597 2°46.056 7.537927 3.456066 33.477972 0.870512
2004-02-04 08:00:20 51°11.587 2°46.023 7.539827 3.456382 33.481373 0.97164
2004-02-04 08:00:24 51°11.58 2°46.001 7.539486 3.456487 33.482506 1.005349
2004-02-04 08:00:30 51°11.569 2°45.968 7.540119 3.456382 33.481373 0.904221
2004-02-04 08:00:34 51°11.562 2°45.946 7.540119 3.456382 33.481373 0.904221
2004-02-04 08:00:39 51°11.554 2°45.918 7.540704 3.456487 33.482506 0.836802
2004-02-04 08:00:44 51°11.545 2°45.89 7.541191 3.456592 33.48445 0.904221
2004-02-04 08:00:50 51°11.535 2°45.857 7.543237 3.439526 33.300087 0.904221
2004-02-04 08:00:54 51°11.529 2°45.834 7.545673 3.456171 33.479106 1.005349
2004-02-04 08:00:59 51°11.522 2°45.806 7.544261 3.456487 33.482506 1.005349
2004-02-04 08:01:04 51°11.514 2°45.777 7.544261 3.456487 33.482506 1.005349
2004-02-04 08:01:09 51°11.507 2°45.748 7.54694 3.455749 33.472142 0.93793
2004-02-04 08:01:14 51°11.499 2°45.72 7.546307 3.456066 33.474732 0.904221
2004-02-04 08:01:18 51°11.494 2°45.697 7.547914 3.450061 33.407715 0.97164
2004-02-04 08:01:24 51°11.485 2°45.663 7.549424 3.449745 33.404316 0.870512
2004-02-04 08:01:28 51°11.479 2°45.639 7.551373 3.449534 33.40205 0.904221
2004-02-04 08:01:34 51°11.471 2°45.605 7.551373 3.449534 33.40205 0.904221
2004-02-04 08:01:40 51°11.462 2°45.571 7.55035 3.456065 33.470683 1.005349
2004-02-04 08:01:44 51°11.456 2°45.548 7.552104 3.45596 33.46874 0.97164
2004-02-04 08:01:49 51°11.448 2°45.519 7.554393 3.45596 33.46712 1.005349
2004-02-04 08:01:54 51°11.441 2°45.491 7.55376 3.455749 33.464044 0.97164
2004-02-04 08:01:58 51°11.435 2°45.468 7.555416 3.455749 33.464854 0.97164
2004-02-04 08:02:04 51°11.426 2°45.434 7.555416 3.455749 33.464854 0.97164
2004-02-04 08:02:10 51°11.417 2°45.399 7.554539 3.45596 33.465501 0.97164
2004-02-04 08:02:14 51°11.411 2°45.377 7.556049 3.456065 33.465015 1.005349
2004-02-04 08:02:19 51°11.404 2°45.348 7.557315 3.456276 33.467281 0.97164
2004-02-04 08:02:24 51°11.397 2°45.319 7.555562 3.456065 33.464205 1.039059
2004-02-04 08:02:28 51°11.391 2°45.296 7.555708 3.456065 33.464205 1.072768
2004-02-04 08:02:34 51°11.382 2°45.262 7.555708 3.456065 33.464205 1.072768
2004-02-04 08:02:39 51°11.375 2°45.233 7.555416 3.456171 33.464529 1.005349
2004-02-04 08:02:44 51°11.367 2°45.205 7.55751 3.456276 33.463234 1.106477
2004-02-04 08:02:48 51°11.362 2°45.182 7.556195 3.456487 33.466309 1.039059
2004-02-04 08:02:54 51°11.353 2°45.147 7.556536 3.456592 33.467442 1.072768
2004-02-04 08:02:59 51°11.346 2°45.119 7.555172 3.456592 33.467442 1.005349
2004-02-04 08:03:04 51°11.338 2°45.09 7.555172 3.456592 33.467442 1.005349
2004-02-04 08:03:09 51°11.331 2°45.062 7.55376 3.456908 33.470031 1.106477
2004-02-04 08:03:14 51°11.324 2°45.033 7.554442 3.457013 33.471164 1.005349
2004-02-04 08:03:18 51°11.319 2°45.01 7.552396 3.457119 33.472297 1.005349
2004-02-04 08:03:24 51°11.31 2°44.976 7.552883 3.45733 33.475373 1.005349
2004-02-04 08:03:30 51°11.301 2°44.941 7.551811 3.457646 33.479581 1.072768
2004-02-04 08:03:34 51°11.295 2°44.919 7.551811 3.457646 33.479581 1.072768
2004-02-04 08:03:38 51°11.289 2°44.896 7.549278 3.457856 33.482657 1.005349
2004-02-04 08:03:44 51°11.281 2°44.861 7.548158 3.458278 33.48719 0.97164
2004-02-04 08:03:50 51°11.272 2°44.827 7.547232 3.458594 33.492209 1.072768
2004-02-04 08:03:54 51°11.266 2°44.804 7.549619 3.458804 33.496096 1.039059
2004-02-04 08:04:00 51°11.257 2°44.77 7.548012 3.459015 33.498362 1.039059
2004-02-04 08:04:04 51°11.252 2°44.747 7.548012 3.459015 33.498362 1.039059
2004-02-04 08:04:09 51°11.244 2°44.718 7.545137 3.459015 33.499983 1.072768
2004-02-04 08:04:14 51°11.237 2°44.69 7.545966 3.459437 33.505327 1.039059
2004-02-04 08:04:20 51°11.228 2°44.655 7.546307 3.459542 33.50565 1.005349
2004-02-04 08:04:24 51°11.222 2°44.632 7.546648 3.459753 33.509538 1.005349
2004-02-04 08:04:29 51°11.215 2°44.603 7.543871 3.459963 33.511805 1.039059
2004-02-04 08:04:34 51°11.208 2°44.575 7.543871 3.459963 33.511805 1.039059
2004-02-04 08:04:39 51°11.2 2°44.546 7.542604 3.460385 33.516338 1.106477
2004-02-04 08:04:44 51°11.193 2°44.518 7.54314 3.46049 33.519094 1.039059
2004-02-04 08:04:49 51°11.185 2°44.489 7.542214 3.460595 33.519416 0.93793
2004-02-04 08:04:54 51°11.178 2°44.46 7.541873 3.460806 33.524927 1.039059
2004-02-04 08:05:00 51°11.171 2°44.425 7.544407 3.461122 33.527517 1.072768
2004-02-04 08:05:04 51°11.166 2°44.402 7.544407 3.461122 33.527517 1.072768
2004-02-04 08:05:09 51°11.16 2°44.372 7.542945 3.461122 33.527517 1.072768
2004-02-04 08:05:14 51°11.154 2°44.343 7.542312 3.461333 33.530595 1.039059
2004-02-04 08:05:18 51°11.15 2°44.319 7.540022 3.461438 33.53254 1.039059
2004-02-04 08:05:24 51°11.143 2°44.283 7.542994 3.461649 33.534808 1.072768
2004-02-04 08:05:28 51°11.138 2°44.26 7.538901 3.461965 33.537397 1.039059
2004-02-04 08:05:34 51°11.131 2°44.224 7.538901 3.461965 33.537397 1.039059
2004-02-04 08:05:40 51°11.124 2°44.189 7.539194 3.462176 33.539665 1.039059
2004-02-04 08:05:44 51°11.12 2°44.165 7.536514 3.462492 33.543877 1.140187
2004-02-04 08:05:48 51°11.115 2°44.141 7.536611 3.462492 33.544689 1.072768
2004-02-04 08:05:54 51°11.108 2°44.106 7.536952 3.462597 33.546634 1.005349
2004-02-04 08:05:59 51°11.102 2°44.076 7.535491 3.462808 33.550526 1.039059
2004-02-04 08:06:04 51°11.096 2°44.047 7.535491 3.462808 33.550526 1.039059
2004-02-04 08:06:09 51°11.09 2°44.017 7.53856 3.463124 33.556364 1.039059
2004-02-04 08:06:14 51°11.085 2°43.988 7.537488 3.463335 33.558631 1.039059
2004-02-04 08:06:20 51°11.078 2°43.952 7.538901 3.463545 33.560087 1.072768
2004-02-04 08:06:24 51°11.074 2°43.929 7.539632 3.463756 33.562355 1.039059
2004-02-04 08:06:29 51°11.068 2°43.899 7.53666 3.464177 33.566891 1.039059
2004-02-04 08:06:34 51°11.063 2°43.869 7.53666 3.464177 33.566891 1.039059
2004-02-04 08:06:40 51°11.056 2°43.834 7.538512 3.464388 33.569159 0.97164
2004-02-04 08:06:44 51°11.051 2°43.81 7.534857 3.464915 33.574016 0.97164
2004-02-04 08:06:49 51°11.046 2°43.781 7.536124 3.465231 33.576605 1.072768
2004-02-04 08:06:54 51°11.04 2°43.751 7.538122 3.465547 33.582445 1.106477
2004-02-04 08:06:58 51°11.035 2°43.728 7.538853 3.465652 33.582767 1.005349
2004-02-04 08:07:04 51°11.028 2°43.692 7.538853 3.465652 33.582767 1.005349
2004-02-04 08:07:09 51°11.023 2°43.663 7.538512 3.465968 33.586982 1.106477
2004-02-04 08:07:14 51°11.017 2°43.633 7.536855 3.466074 33.588116 1.072768
2004-02-04 08:07:20 51°11.01 2°43.598 7.539486 3.466284 33.589571 1.039059
2004-02-04 08:07:24 51°11.006 2°43.574 7.537391 3.466284 33.589571 1.106477
2004-02-04 08:07:29 51°11 2°43.545 7.538122 3.466706 33.592481 0.97164
2004-02-04 08:07:34 51°10.995 2°43.515 7.538122 3.466706 33.592481 0.97164
2004-02-04 08:07:39 51°10.989 2°43.486 7.540801 3.466811 33.593615 1.072768
2004-02-04 08:07:44 51°10.982 2°43.457 7.538024 3.467127 33.597017 1.005349
2004-02-04 08:07:49 51°10.976 2°43.428 7.537781 3.467338 33.600099 1.005349
2004-02-04 08:07:54 51°10.97 2°43.398 7.537878 3.467549 33.602367 1.005349
2004-02-04 08:08:00 51°10.963 2°43.363 7.538755 3.467759 33.604635 0.97164
2004-02-04 08:08:04 51°10.959 2°43.339 7.538755 3.467759 33.604635 0.97164
2004-02-04 08:08:08 51°10.955 2°43.316 7.539535 3.467654 33.604314 1.039059
2004-02-04 08:08:14 51°10.948 2°43.28 7.537099 3.468075 33.608851 0.97164
2004-02-04 08:08:19 51°10.942 2°43.25 7.534857 3.468286 33.610306 0.97164
2004-02-04 08:08:24 51°10.937 2°43.221 7.534711 3.468391 33.61144 1.072768
2004-02-04 08:08:29 51°10.931 2°43.191 7.533932 3.468813 33.61679 0.97164
2004-02-04 08:08:34 51°10.925 2°43.162 7.533932 3.468813 33.61679 0.97164
2004-02-04 08:08:40 51°10.919 2°43.126 7.533006 3.469129 33.621007 1.039059
2004-02-04 08:08:44 51°10.914 2°43.103 7.533493 3.46934 33.624089 1.072768
2004-02-04 08:08:49 51°10.909 2°43.073 7.531934 3.469761 33.628626 1.005349
2004-02-04 08:08:54 51°10.903 2°43.044 7.530277 3.469866 33.631388 1.072768
2004-02-04 08:09:00 51°10.896 2°43.008 7.53091 3.470077 33.633657 0.97164
2004-02-04 08:09:04 51°10.892 2°42.984 7.53091 3.470077 33.633657 0.97164
2004-02-04 08:09:09 51°10.886 2°42.954 7.532616 3.470393 33.63706 0.97164
2004-02-04 08:09:14 51°10.881 2°42.925 7.530033 3.470709 33.641278 1.039059
2004-02-04 08:09:18 51°10.876 2°42.901 7.528328 3.471025 33.64631 0.93793
2004-02-04 08:09:24 51°10.87 2°42.865 7.527597 3.471552 33.651168 0.97164
2004-02-04 08:09:29 51°10.864 2°42.836 7.524576 3.471763 33.655067 0.870512
2004-02-04 08:09:34 51°10.859 2°42.806 7.524576 3.471763 33.655067 0.870512
2004-02-04 08:09:39 51°10.853 2°42.776 7.526963 3.472079 33.65847 0.870512
2004-02-04 08:09:44 51°10.848 2°42.746 7.523845 3.472711 33.666908 0.93793
2004-02-04 08:09:49 51°10.842 2°42.717 7.525209 3.473132 33.673077 0.904221
2004-02-04 08:09:54 51°10.837 2°42.687 7.525648 3.473554 33.678432 1.005349
2004-02-04 08:10:00 51°10.83 2°42.651 7.525648 3.473554 33.678432 1.005349
2004-02-04 08:10:04 51°10.826 2°42.627 7.524868 3.473554 33.679247 0.870512
2004-02-04 08:10:09 51°10.82 2°42.598 7.523309 3.47408 33.685737 0.93793
2004-02-04 08:10:14 51°10.815 2°42.568 7.523211 3.47408 33.685737 0.97164
2004-02-04 08:10:18 51°10.81 2°42.545 7.525599 3.474502 33.690277 0.97164
2004-02-04 08:10:24 51°10.803 2°42.509 7.52209 3.474923 33.694001 0.93793
2004-02-04 08:10:29 51°10.798 2°42.479 7.52209 3.474923 33.694001 0.93793
2004-02-04 08:10:34 51°10.792 2°42.45 7.521262 3.475345 33.699357 0.93793
2004-02-04 08:10:38 51°10.788 2°42.426 7.522041 3.475555 33.702443 1.039059
2004-02-04 08:10:44 51°10.781 2°42.39 7.519215 3.476187 33.709253 0.870512
2004-02-04 08:10:48 51°10.776 2°42.367 7.51668 3.476609 33.714609 0.870512
2004-02-04 08:10:54 51°10.77 2°42.331 7.514731 3.477241 33.72142 1.005349
2004-02-04 08:11:00 51°10.763 2°42.296 7.515706 3.477768 33.729546 0.97164
2004-02-04 08:11:04 51°10.758 2°42.272 7.515706 3.477768 33.729546 0.97164
2004-02-04 08:11:09 51°10.753 2°42.242 7.510149 3.478295 33.736039 1.005349
2004-02-04 08:11:14 51°10.748 2°42.213 7.51088 3.478927 33.745303 1.005349
2004-02-04 08:11:20 51°10.741 2°42.177 7.509759 3.479348 33.750662 1.039059
2004-02-04 08:11:24 51°10.737 2°42.153 7.509759 3.479664 33.754886 1.039059
2004-02-04 08:11:29 51°10.731 2°42.124 7.510344 3.480191 33.762199 0.904221
2004-02-04 08:11:34 51°10.726 2°42.094 7.510344 3.480191 33.762199 0.904221
2004-02-04 08:11:38 51°10.721 2°42.07 7.508492 3.480612 33.766741 1.039059
2004-02-04 08:11:44 51°10.715 2°42.035 7.509905 3.480718 33.770331 0.870512
2004-02-04 08:11:48 51°10.71 2°42.011 7.507858 3.48135 33.776327 0.97164
2004-02-04 08:11:54 51°10.704 2°41.976 7.509759 3.481245 33.776009 0.803093
2004-02-04 08:11:58 51°10.699 2°41.952 7.508004 3.481666 33.781371 0.870512
2004-02-04 08:12:04 51°10.692 2°41.917 7.508004 3.481666 33.781371 0.870512
2004-02-04 08:12:09 51°10.686 2°41.887 7.508736 3.482087 33.785914 1.005349
2004-02-04 08:12:14 51°10.681 2°41.857 7.507956 3.482087 33.786732 1.039059
2004-02-04 08:12:20 51°10.674 2°41.822 7.508297 3.482298 33.787367 0.904221
2004-02-04 08:12:24 51°10.67 2°41.798 7.504641 3.482825 33.794683 0.870512
2004-02-04 08:12:28 51°10.665 2°41.775 7.50391 3.482825 33.794683 0.97164
2004-02-04 08:12:34 51°10.659 2°41.739 7.50391 3.482825 33.794683 0.97164
2004-02-04 08:12:38 51°10.654 2°41.715 7.5043 3.483352 33.801182 0.904221
2004-02-04 08:12:44 51°10.647 2°41.68 7.502155 3.483457 33.803955 0.93793
2004-02-04 08:12:49 51°10.642 2°41.65 7.506834 3.483773 33.808183 0.904221
2004-02-04 08:12:54 51°10.636 2°41.621 7.504543 3.483878 33.811776 0.93793
2004-02-04 08:13:00 51°10.63 2°41.585 7.504153 3.4843 33.815501 0.93793
2004-02-04 08:13:04 51°10.625 2°41.561 7.504153 3.4843 33.815501 0.93793
2004-02-04 08:13:09 51°10.62 2°41.532 7.503032 3.4843 33.815501 0.93793
2004-02-04 08:13:14 51°10.614 2°41.502 7.499766 3.48451 33.816954 0.836802
2004-02-04 08:13:18 51°10.61 2°41.478 7.498303 3.484616 33.81891 0.904221
2004-02-04 08:13:24 51°10.602 2°41.443 7.497475 3.484932 33.822318 0.803093
2004-02-04 08:13:29 51°10.597 2°41.414 7.50118 3.485459 33.828819 0.93793
2004-02-04 08:13:34 51°10.591 2°41.384 7.50118 3.485459 33.828819 0.93793
2004-02-04 08:13:38 51°10.587 2°41.361 7.496451 3.485669 33.832731 0.904221
2004-02-04 08:13:44 51°10.58 2°41.325 7.498986 3.48588 33.836643 0.870512
2004-02-04 08:13:50 51°10.573 2°41.29 7.497231 3.485985 33.837779 0.904221
2004-02-04 08:13:54 51°10.568 2°41.267 7.496548 3.486196 33.840052 0.93793
2004-02-04 08:13:58 51°10.564 2°41.243 7.491234 3.486302 33.842829 0.870512
2004-02-04 08:14:04 51°10.557 2°41.207 7.491234 3.486302 33.842829 0.870512
2004-02-04 08:14:09 51°10.552 2°41.178 7.491526 3.486407 33.843965 1.039059
2004-02-04 08:14:14 51°10.546 2°41.148 7.488357 3.486723 33.848195 1.173896
2004-02-04 08:14:19 51°10.541 2°41.118 7.489478 3.487355 33.855834 0.803093
2004-02-04 08:14:24 51°10.535 2°41.089 7.484749 3.48746 33.858612 0.93793
2004-02-04 08:14:29 51°10.53 2°41.059 7.481335 3.487882 33.8648 0.836802
2004-02-04 08:14:34 51°10.524 2°41.03 7.481335 3.487882 33.8648 0.836802
2004-02-04 08:14:38 51°10.519 2°41.006 7.482603 3.487882 33.868084 0.870512
2004-02-04 08:14:44 51°10.513 2°40.971 7.483091 3.488303 33.87181 1.072768
2004-02-04 08:14:48 51°10.508 2°40.947 7.48153 3.488725 33.878821 0.97164
2004-02-04 08:14:54 51°10.501 2°40.912 7.481872 3.488936 33.885202 0.97164
2004-02-04 08:15:00 51°10.495 2°40.876 7.480701 3.489146 33.888297 1.005349
2004-02-04 08:15:04 51°10.491 2°40.853 7.480701 3.489146 33.888297 1.005349
2004-02-04 08:15:09 51°10.485 2°40.823 7.478263 3.489041 33.88716 0.904221
2004-02-04 08:15:14 51°10.48 2°40.793 7.476117 3.489041 33.88716 0.97164
2004-02-04 08:15:19 51°10.475 2°40.764 7.474898 3.489146 33.889119 1.039059
2004-02-04 08:15:24 51°10.47 2°40.734 7.473776 3.489568 33.894489 1.005349
2004-02-04 08:15:29 51°10.465 2°40.704 7.470752 3.489673 33.89727 0.870512
2004-02-04 08:15:35 51°10.459 2°40.669 7.470752 3.489673 33.89727 0.870512
2004-02-04 08:15:39 51°10.454 2°40.646 7.476458 3.489884 33.900367 0.97164
2004-02-04 08:15:44 51°10.449 2°40.616 7.505323 3.489884 33.902833 0.735674
2004-02-04 08:15:48 51°10.445 2°40.593 7.535539 3.490411 33.909342 0.870512
2004-02-04 08:15:54 51°10.438 2°40.558 7.5729 3.490411 33.910987 0.836802
2004-02-04 08:15:59 51°10.433 2°40.528 7.598898 3.487671 33.878129 0.836802
2004-02-04 08:16:04 51°10.428 2°40.499 7.598898 3.487671 33.878129 0.836802
2004-02-04 08:16:09 51°10.423 2°40.47 7.608341 3.476504 33.744526 0.93793
2004-02-04 08:16:14 51°10.418 2°40.44 7.617587 3.460174 33.548976 0.904221
2004-02-04 08:16:20 51°10.412 2°40.405 7.623913 3.436576 33.263548 0.904221
2004-02-04 08:16:24 51°10.407 2°40.382 7.634373 3.418984 33.047357 1.072768
2004-02-04 08:16:29 51°10.402 2°40.352 7.645708 3.410978 32.944744 1.106477
2004-02-04 08:16:34 51°10.396 2°40.323 7.645708 3.410978 32.944744 1.106477
2004-02-04 08:16:40 51°10.39 2°40.288 7.659034 3.404341 32.862492 1.140187
2004-02-04 08:16:44 51°10.385 2°40.265 7.670072 3.399601 32.802997 1.072768
2004-02-04 08:16:49 51°10.38 2°40.236 7.676781 3.394544 32.740163 1.072768
2004-02-04 08:16:54 51°10.375 2°40.206 7.695496 3.389277 32.673545 1.140187
2004-02-04 08:16:58 51°10.371 2°40.183 7.71027 3.381166 32.575007 1.039059
2004-02-04 08:17:04 51°10.364 2°40.148 7.71027 3.381166 32.575007 1.039059
2004-02-04 08:17:08 51°10.36 2°40.125 7.713622 3.376848 32.519437 1.140187
2004-02-04 08:17:14 51°10.353 2°40.09 7.722708 3.370843 32.447474 1.140187
2004-02-04 08:17:18 51°10.349 2°40.067 7.728926 3.362838 32.34875 1.140187
2004-02-04 08:17:24 51°10.343 2°40.032 7.736309 3.35399 32.242709 1.241315
2004-02-04 08:17:29 51°10.337 2°40.002 7.736309 3.35399 32.242709 1.241315
2004-02-04 08:17:34 51°10.332 2°39.973 7.746994 3.351041 32.201187 1.207606
2004-02-04 08:17:39 51°10.326 2°39.944 7.752919 3.34767 32.157528 1.207606
2004-02-04 08:17:44 51°10.321 2°39.915 7.742769 3.345037 32.123294 1.241315
2004-02-04 08:17:49 51°10.316 2°39.886 7.731258 3.341455 32.077442 1.275024
2004-02-04 08:17:54 51°10.31 2°39.856 7.724505 3.335662 32.008082 1.308734
2004-02-04 08:18:00 51°10.304 2°39.821 7.719064 3.333766 31.980991 1.275024
2004-02-04 08:18:04 51°10.3 2°39.798 7.719064 3.333766 31.980991 1.275024
2004-02-04 08:18:08 51°10.296 2°39.775 7.705653 3.338822 32.036315 1.477281
2004-02-04 08:18:14 51°10.289 2°39.74 7.689761 3.345668 32.115348 1.308734
2004-02-04 08:18:19 51°10.284 2°39.711 7.674107 3.351672 32.18546 1.207606
2004-02-04 08:18:24 51°10.278 2°39.681 7.658402 3.354832 32.224542 1.173896
2004-02-04 08:18:29 51°10.273 2°39.652 7.659763 3.362943 32.31874 1.207606
2004-02-04 08:18:34 51°10.268 2°39.623 7.659763 3.362943 32.31874 1.207606
2004-02-04 08:18:38 51°10.264 2°39.6 7.674253 3.372107 32.427374 1.207606
2004-02-04 08:18:44 51°10.257 2°39.564 7.689664 3.382009 32.547917 1.173896
2004-02-04 08:18:48 51°10.253 2°39.541 7.702786 3.390646 32.654325 1.207606
2004-02-04 08:18:54 51°10.247 2°39.506 7.712213 3.392753 32.680779 1.140187
2004-02-04 08:19:00 51°10.24 2°39.471 7.721542 3.389172 32.637779 1.173896
2004-02-04 08:19:04 51°10.236 2°39.447 7.721542 3.389172 32.637779 1.173896
2004-02-04 08:19:09 51°10.231 2°39.418 7.736504 3.383905 32.572087 1.173896
2004-02-04 08:19:14 51°10.225 2°39.389 7.747723 3.378427 32.503416 1.241315
2004-02-04 08:19:20 51°10.219 2°39.353 7.761756 3.37453 32.45166 1.207606
2004-02-04 08:19:24 51°10.215 2°39.33 7.765834 3.371054 32.404438 1.207606
2004-02-04 08:19:29 51°10.209 2°39.301 7.757678 3.366419 32.345681 1.140187
2004-02-04 08:19:34 51°10.204 2°39.271 7.757678 3.366419 32.345681 1.140187
2004-02-04 08:19:38 51°10.2 2°39.248 7.749277 3.363259 32.30035 1.207606
2004-02-04 08:19:44 51°10.194 2°39.213 7.745683 3.359361 32.247206 1.241315
2004-02-04 08:19:48 51°10.189 2°39.189 7.750685 3.358097 32.227552 1.173896
2004-02-04 08:19:54 51°10.183 2°39.154 7.760202 3.361889 32.268696 1.140187
2004-02-04 08:19:58 51°10.179 2°39.13 7.763601 3.367577 32.333147 1.241315
2004-02-04 08:20:04 51°10.173 2°39.095 7.763601 3.367577 32.333147 1.241315
2004-02-04 08:20:09 51°10.167 2°39.066 7.768116 3.370105 32.363963 1.173896
2004-02-04 08:20:14 51°10.162 2°39.036 7.772679 3.37 32.362841 1.241315
2004-02-04 08:20:18 51°10.157 2°39.013 7.772194 3.366945 32.324085 1.308734
2004-02-04 08:20:24 51°10.151 2°38.978 7.771223 3.365892 32.308986 1.207606
2004-02-04 08:20:28 51°10.147 2°38.954 7.771903 3.364733 32.291994 1.173896
2004-02-04 08:20:34 51°10.14 2°38.919 7.771903 3.364733 32.291994 1.173896
2004-02-04 08:20:38 51°10.136 2°38.895 7.772728 3.36368 32.276904 1.241315
2004-02-04 08:20:44 51°10.13 2°38.86 7.768213 3.363785 32.27725 1.241315
2004-02-04 08:20:49 51°10.125 2°38.831 7.762484 3.364733 32.28579 1.342443
2004-02-04 08:20:54 51°10.119 2°38.801 7.757095 3.364944 32.288807 1.241315
2004-02-04 08:21:00 51°10.113 2°38.766 7.757386 3.365154 32.29105 1.241315
2004-02-04 08:21:04 51°10.109 2°38.743 7.757386 3.365154 32.29105 1.241315
2004-02-04 08:21:08 51°10.105 2°38.719 7.755395 3.36684 32.30899 1.275024
2004-02-04 08:21:14 51°10.099 2°38.684 7.753307 3.369578 32.342806 1.275024
2004-02-04 08:21:20 51°10.092 2°38.648 7.751171 3.372106 32.373614 1.140187
2004-02-04 08:21:24 51°10.088 2°38.625 7.755978 3.37337 32.388633 1.241315
2004-02-04 08:21:29 51°10.083 2°38.595 7.756415 3.374634 32.403654 1.207606
2004-02-04 08:21:34 51°10.077 2°38.566 7.756415 3.374634 32.403654 1.207606
2004-02-04 08:21:39 51°10.072 2°38.537 7.758503 3.376214 32.422824 1.207606
2004-02-04 08:21:44 51°10.067 2°38.507 7.763504 3.377794 32.440438 1.207606
2004-02-04 08:21:49 51°10.062 2°38.478 7.770883 3.371896 32.376037 1.241315
2004-02-04 08:21:54 51°10.056 2°38.448 7.773262 3.374002 32.398479 1.140187
2004-02-04 08:21:59 51°10.051 2°38.419 7.768213 3.378321 32.442932 1.342443
2004-02-04 08:22:04 51°10.046 2°38.39 7.768213 3.378321 32.442932 1.342443
2004-02-04 08:22:09 51°10.04 2°38.36 7.766126 3.378216 32.438691 1.173896
2004-02-04 08:22:14 51°10.035 2°38.331 7.765397 3.377268 32.423918 1.207606
2004-02-04 08:22:18 51°10.031 2°38.307 7.764232 3.378216 32.4309 1.173896
2004-02-04 08:22:24 51°10.025 2°38.272 7.763601 3.381481 32.464902 1.207606
2004-02-04 08:22:29 51°10.02 2°38.243 7.761222 3.384009 32.493394 1.241315
2004-02-04 08:22:34 51°10.014 2°38.213 7.761222 3.384009 32.493394 1.241315
2004-02-04 08:22:38 51°10.01 2°38.19 7.760008 3.385589 32.51179 1.241315
2004-02-04 08:22:44 51°10.004 2°38.155 7.762679 3.387485 32.532776 1.173896
2004-02-04 08:22:49 51°9.998 2°38.125 7.767097 3.389276 32.554206 1.275024
2004-02-04 08:22:54 51°9.993 2°38.096 7.767339 3.390435 32.567338 1.173896
2004-02-04 08:23:00 51°9.987 2°38.061 7.767242 3.391172 32.57598 1.173896
2004-02-04 08:23:04 51°9.983 2°38.037 7.767242 3.391172 32.57598 1.173896
2004-02-04 08:23:09 51°9.977 2°38.007 7.768505 3.390961 32.572952 1.241315
2004-02-04 08:23:14 51°9.972 2°37.978 7.769864 3.390224 32.562745 1.173896
2004-02-04 08:23:20 51°9.966 2°37.943 7.767534 3.390013 32.558154 1.173896
2004-02-04 08:23:24 51°9.961 2°37.919 7.771854 3.39054 32.563767 1.207606
2004-02-04 08:23:29 51°9.956 2°37.89 7.774912 3.390751 32.56523 1.207606
2004-02-04 08:23:34 51°9.95 2°37.861 7.774912 3.390751 32.56523 1.207606
2004-02-04 08:23:40 51°9.944 2°37.825 7.775932 3.390645 32.563325 1.241315
2004-02-04 08:23:44 51°9.94 2°37.801 7.775592 3.391277 32.57006 1.207606
2004-02-04 08:23:49 51°9.935 2°37.772 7.772679 3.390856 32.564006 1.308734
2004-02-04 08:23:54 51°9.93 2°37.743 7.774476 3.390329 32.555265 1.173896
2004-02-04 08:23:59 51°9.924 2°37.713 7.774379 3.39054 32.556728 1.342443
2004-02-04 08:24:04 51°9.919 2°37.684 7.774379 3.39054 32.556728 1.342443
2004-02-04 08:24:10 51°9.912 2°37.649 7.772631 3.391277 32.564585 1.207606
2004-02-04 08:24:14 51°9.908 2°37.625 7.773893 3.392752 32.581082 1.241315
2004-02-04 08:24:20 51°9.902 2°37.59 7.778553 3.393595 32.589279 1.308734
2004-02-04 08:24:24 51°9.897 2°37.567 7.783601 3.394543 32.5986 1.207606
2004-02-04 08:24:29 51°9.891 2°37.538 7.785931 3.395807 32.614421 1.275024
2004-02-04 08:24:34 51°9.885 2°37.509 7.785931 3.395807 32.614421 1.275024
2004-02-04 08:24:40 51°9.878 2°37.474 7.786173 3.396333 32.619251 1.207606
2004-02-04 08:24:44 51°9.874 2°37.451 7.786368 3.395491 32.608703 1.241315
2004-02-04 08:24:49 51°9.867 2°37.422 7.789619 3.394543 32.595468 1.241315
2004-02-04 08:24:54 51°9.861 2°37.393 7.792143 3.393911 32.585604 1.173896
2004-02-04 08:24:58 51°9.857 2°37.369 7.792774 3.394543 32.590773 1.207606
2004-02-04 08:25:04 51°9.85 2°37.334 7.792774 3.394543 32.590773 1.207606
2004-02-04 08:25:09 51°9.844 2°37.305 7.790832 3.395385 32.598186 1.207606
2004-02-04 08:25:14 51°9.838 2°37.276 7.784717 3.396123 32.603694 1.173896
2004-02-04 08:25:18 51°9.834 2°37.253 7.780786 3.396333 32.604373 1.275024
2004-02-04 08:25:24 51°9.827 2°37.218 7.777631 3.397281 32.61369 1.207606
2004-02-04 08:25:29 51°9.821 2°37.189 7.772388 3.398229 32.623007 1.241315
2004-02-04 08:25:34 51°9.815 2°37.16 7.772388 3.398229 32.623007 1.241315
2004-02-04 08:25:38 51°9.81 2°37.136 7.76967 3.400231 32.645898 1.173896
2004-02-04 08:25:44 51°9.803 2°37.101 7.766271 3.402443 32.67496 1.241315
2004-02-04 08:25:48 51°9.798 2°37.078 7.763941 3.404761 32.703587 1.207606
2004-02-04 08:25:54 51°9.791 2°37.043 7.760348 3.406762 32.727282 1.207606
2004-02-04 08:26:00 51°9.784 2°37.008 7.757338 3.408764 32.75177 1.207606
2004-02-04 08:26:04 51°9.779 2°36.985 7.757338 3.408764 32.75177 1.207606
2004-02-04 08:26:09 51°9.774 2°36.956 7.75423 3.41066 32.77514 1.207606
2004-02-04 08:26:14 51°9.768 2°36.927 7.751899 3.412556 32.797729 1.241315
2004-02-04 08:26:20 51°9.761 2°36.892 7.748694 3.414663 32.822571 1.207606
2004-02-04 08:26:24 51°9.756 2°36.868 7.743352 3.41677 32.848997 1.241315
2004-02-04 08:26:29 51°9.751 2°36.839 7.741992 3.419614 32.882514 1.140187
2004-02-04 08:26:34 51°9.744 2°36.81 7.741992 3.419614 32.882514 1.140187
2004-02-04 08:26:38 51°9.74 2°36.787 7.738641 3.422247 32.913 1.173896
2004-02-04 08:26:44 51°9.732 2°36.752 7.743158 3.424986 32.945411 1.173896
2004-02-04 08:26:49 51°9.727 2°36.723 7.743352 3.427409 32.974456 1.241315
2004-02-04 08:26:54 51°9.721 2°36.694 7.742284 3.429095 32.995633 1.241315
2004-02-04 08:27:00 51°9.714 2°36.659 7.738787 3.431096 33.018604 1.207606
2004-02-04 08:27:04 51°9.709 2°36.635 7.738787 3.431096 33.018604 1.207606
2004-02-04 08:27:09 51°9.703 2°36.606 7.740049 3.43215 33.030654 1.207606
2004-02-04 08:27:14 51°9.697 2°36.577 7.735921 3.433203 33.039527 1.207606
2004-02-04 08:27:18 51°9.692 2°36.554 7.736212 3.434362 33.052704 1.173896
2004-02-04 08:27:24 51°9.685 2°36.519 7.733735 3.435942 33.071975 1.308734
2004-02-04 08:27:29 51°9.679 2°36.489 7.732764 3.437838 33.091445 1.140187
2004-02-04 08:27:34 51°9.673 2°36.46 7.732764 3.437838 33.091445 1.140187
2004-02-04 08:27:40 51°9.666 2°36.426 7.732569 3.440051 33.118277 1.173896
2004-02-04 08:27:44 51°9.661 2°36.402 7.726934 3.441526 33.13484 1.173896
2004-02-04 08:27:49 51°9.655 2°36.374 7.727469 3.443106 33.152532 1.207606
2004-02-04 08:27:54 51°9.649 2°36.345 7.728246 3.444581 33.169897 1.173896
2004-02-04 08:28:00 51°9.642 2°36.31 7.723874 3.446266 33.18872 1.207606
2004-02-04 08:28:04 51°9.637 2°36.286 7.723874 3.446266 33.18872 1.207606
2004-02-04 08:28:09 51°9.632 2°36.257 7.721202 3.447952 33.205149 1.207606
2004-02-04 08:28:14 51°9.626 2°36.228 7.71785 3.449953 33.232152 1.173896
2004-02-04 08:28:19 51°9.62 2°36.199 7.717364 3.451112 33.244548 1.173896
2004-02-04 08:28:24 51°9.615 2°36.17 7.717315 3.45343 33.272546 1.342443
2004-02-04 08:28:29 51°9.609 2°36.141 7.717315 3.45343 33.272546 1.342443
2004-02-04 08:28:34 51°9.603 2°36.112 7.711533 3.455431 33.295566 1.308734
2004-02-04 08:28:38 51°9.598 2°36.088 7.708132 3.456906 33.314557 1.207606
2004-02-04 08:28:44 51°9.591 2°36.054 7.706431 3.458697 33.332925 1.241315
2004-02-04 08:28:50 51°9.584 2°36.019 7.703564 3.461647 33.36691 1.207606
2004-02-04 08:28:54 51°9.579 2°35.996 7.700842 3.464491 33.399777 1.173896
2004-02-04 08:28:59 51°9.573 2°35.967 7.700842 3.464491 33.399777 1.173896
2004-02-04 08:29:04 51°9.567 2°35.938 7.699676 3.467757 33.437971 1.241315
2004-02-04 08:29:09 51°9.562 2°35.909 7.697878 3.470602 33.470857 1.241315
2004-02-04 08:29:14 51°9.556 2°35.88 7.693892 3.473025 33.500849 1.376153
2004-02-04 08:29:20 51°9.549 2°35.846 7.68806 3.474711 33.51972 1.342443
2004-02-04 08:29:24 51°9.545 2°35.824 7.686358 3.476502 33.542144 1.275024
2004-02-04 08:29:29 51°9.54 2°35.798 7.684268 3.477344 33.553602 1.207606
2004-02-04 08:29:34 51°9.534 2°35.773 7.684268 3.477344 33.553602 1.207606
2004-02-04 08:29:40 51°9.529 2°35.745 7.684268 3.478187 33.565871 1.342443
2004-02-04 08:29:44 51°9.525 2°35.727 7.685921 3.479346 33.581531 1.409862
2004-02-04 08:29:49 51°9.52 2°35.706 7.684414 3.480189 33.592996 1.275024
2004-02-04 08:29:54 51°9.515 2°35.687 7.686698 3.481243 33.605913 1.342443
2004-02-04 08:30:00 51°9.509 2°35.664 7.681837 3.482612 33.622223 1.308734
2004-02-04 08:30:04 51°9.505 2°35.649 7.681837 3.482612 33.622223 1.308734
2004-02-04 08:30:09 51°9.5 2°35.632 7.677948 3.48356 33.633204 1.308734
2004-02-04 08:30:14 51°9.496 2°35.615 7.676927 3.485035 33.649026 1.275024
2004-02-04 08:30:18 51°9.493 2°35.602 7.675371 3.486194 33.660648 1.275024
2004-02-04 08:30:24 51°9.49 2°35.584 7.672357 3.487248 33.675196 1.275024
2004-02-04 08:30:29 51°9.488 2°35.569 7.67119 3.488512 33.690385 1.409862
2004-02-04 08:30:34 51°9.486 2°35.555 7.67119 3.488512 33.690385 1.409862
2004-02-04 08:30:38 51°9.485 2°35.544 7.670218 3.489355 33.702678 1.477281
2004-02-04 08:30:44 51°9.484 2°35.529 7.669002 3.489776 33.708013 1.376153
2004-02-04 08:30:49 51°9.484 2°35.517 7.666571 3.490724 33.719002 1.342443
2004-02-04 08:30:54 51°9.484 2°35.505 7.665939 3.491778 33.731124 1.207606
2004-02-04 08:31:00 51°9.484 2°35.492 7.665696 3.492832 33.745686 1.275024
2004-02-04 08:31:04 51°9.485 2°35.483 7.665696 3.492832 33.745686 1.275024
2004-02-04 08:31:09 51°9.486 2°35.473 7.663264 3.493674 33.754735 1.409862
2004-02-04 08:31:14 51°9.487 2°35.463 7.659374 3.494412 33.763467 1.376153
2004-02-04 08:31:20 51°9.489 2°35.453 7.659715 3.495149 33.773013 1.376153
2004-02-04 08:31:24 51°9.489 2°35.446 7.660541 3.495887 33.782561 1.51099
2004-02-04 08:31:29 51°9.491 2°35.439 7.65563 3.496414 33.789032 1.342443
2004-02-04 08:31:34 51°9.492 2°35.433 7.65563 3.496414 33.789032 1.342443
2004-02-04 08:31:40 51°9.494 2°35.427 7.658499 3.497678 33.806685 1.51099
2004-02-04 08:31:44 51°9.495 2°35.423 7.651398 3.497889 33.808948 1.443571
2004-02-04 08:31:49 51°9.496 2°35.418 7.650182 3.498415 33.815422 1.308734
2004-02-04 08:31:54 51°9.498 2°35.412 7.650523 3.499258 33.826107 1.376153
2004-02-04 08:31:58 51°9.5 2°35.408 7.648772 3.499258 33.828554 1.342443
2004-02-04 08:32:04 51°9.502 2°35.402 7.648772 3.499258 33.828554 1.342443
2004-02-04 08:32:09 51°9.504 2°35.396 7.647605 3.500207 33.841189 1.342443
2004-02-04 08:32:14 51°9.507 2°35.391 7.647167 3.500839 33.848798 1.342443
2004-02-04 08:32:18 51°9.508 2°35.386 7.649356 3.500839 33.851247 1.443571
2004-02-04 08:32:24 51°9.511 2°35.38 7.647167 3.501155 33.85546 1.443571
2004-02-04 08:32:29 51°9.513 2°35.374 7.647167 3.501155 33.85546 1.443571
2004-02-04 08:32:34 51°9.516 2°35.369 7.649161 3.501365 33.858541 1.342443
2004-02-04 08:32:38 51°9.518 2°35.365 7.648286 3.501787 33.86307 1.308734
2004-02-04 08:32:44 51°9.521 2°35.358 7.651398 3.502103 33.867284 1.308734
2004-02-04 08:32:49 51°9.524 2°35.353 7.647459 3.502314 33.871182 1.51099
2004-02-04 08:32:54 51°9.526 2°35.348 7.646048 3.502314 33.870365 1.409862
2004-02-04 08:33:00 51°9.53 2°35.342 7.647459 3.502524 33.87263 1.275024
2004-02-04 08:33:04 51°9.532 2°35.338 7.647459 3.502524 33.87263 1.275024
2004-02-04 08:33:09 51°9.535 2°35.333 7.646875 3.502208 33.869233 1.376153
2004-02-04 08:33:14 51°9.538 2°35.329 7.646924 3.502524 33.87263 1.342443
2004-02-04 08:33:18 51°9.541 2°35.325 7.642108 3.503051 33.879926 1.342443
2004-02-04 08:33:24 51°9.545 2°35.32 7.642254 3.503578 33.885589 1.241315
2004-02-04 08:33:29 51°9.548 2°35.316 7.640649 3.503473 33.884456 1.376153
2004-02-04 08:33:34 51°9.552 2°35.312 7.640649 3.503473 33.884456 1.376153
2004-02-04 08:33:40 51°9.556 2°35.308 7.639335 3.503789 33.887036 1.342443
2004-02-04 08:33:44 51°9.559 2°35.306 7.639044 3.504105 33.891251 1.376153
2004-02-04 08:33:48 51°9.562 2°35.303 7.638022 3.504105 33.893704 1.275024
2004-02-04 08:33:54 51°9.567 2°35.299 7.638265 3.504526 33.900688 1.5447
2004-02-04 08:34:00 51°9.572 2°35.296 7.637876 3.504526 33.900688 1.51099
2004-02-04 08:34:04 51°9.575 2°35.293 7.637876 3.504526 33.900688 1.51099
2004-02-04 08:34:09 51°9.579 2°35.291 7.635833 3.504737 33.903771 1.241315
2004-02-04 08:34:14 51°9.583 2°35.288 7.634373 3.504948 33.906855 1.241315
2004-02-04 08:34:18 51°9.586 2°35.286 7.638265 3.504948 33.907673 1.308734
2004-02-04 08:34:24 51°9.591 2°35.284 7.638217 3.505158 33.909121 1.443571
2004-02-04 08:34:29 51°9.595 2°35.282 7.636027 3.505474 33.914974 1.376153
2004-02-04 08:34:34 51°9.6 2°35.28 7.636027 3.505474 33.914974 1.376153
2004-02-04 08:34:40 51°9.605 2°35.278 7.636563 3.505685 33.91724 1.477281
2004-02-04 08:34:44 51°9.608 2°35.277 7.634957 3.505685 33.918058 1.275024
2004-02-04 08:34:49 51°9.612 2°35.276 7.635054 3.505685 33.91724 1.342443
2004-02-04 08:34:54 51°9.617 2°35.275 7.632476 3.505896 33.919505 1.578409
2004-02-04 08:35:00 51°9.622 2°35.274 7.635881 3.506001 33.920638 1.376153
2004-02-04 08:35:04 51°9.625 2°35.273 7.635881 3.506001 33.920638 1.376153
2004-02-04 08:35:09 51°9.63 2°35.273 7.633108 3.505791 33.919191 1.275024
2004-02-04 08:35:14 51°9.634 2°35.272 7.633206 3.506423 33.925989 1.241315
2004-02-04 08:35:19 51°9.638 2°35.271 7.634033 3.506107 33.925046 1.409862
2004-02-04 08:35:24 51°9.643 2°35.271 7.634957 3.506001 33.921457 1.275024
2004-02-04 08:35:29 51°9.647 2°35.271 7.636854 3.506107 33.923408 1.275024
2004-02-04 08:35:34 51°9.652 2°35.271 7.636854 3.506107 33.923408 1.275024
2004-02-04 08:35:38 51°9.655 2°35.272 7.635687 3.506107 33.923408 1.443571
2004-02-04 08:35:44 51°9.66 2°35.272 7.636319 3.505896 33.920324 1.308734
2004-02-04 08:35:49 51°9.665 2°35.273 7.636027 3.506001 33.921457 1.241315
2004-02-04 08:35:54 51°9.669 2°35.274 7.633838 3.505685 33.918058 1.308734
2004-02-04 08:35:59 51°9.673 2°35.275 7.636222 3.505791 33.919191 1.308734
2004-02-04 08:36:04 51°9.678 2°35.276 7.636222 3.505791 33.919191 1.308734
2004-02-04 08:36:09 51°9.682 2°35.278 7.636708 3.505896 33.920324 1.308734
2004-02-04 08:36:14 51°9.686 2°35.279 7.637827 3.50558 33.917744 1.409862
2004-02-04 08:36:19 51°9.691 2°35.281 7.635298 3.505369 33.917115 1.207606
2004-02-04 08:36:24 51°9.695 2°35.283 7.636173 3.505369 33.916296 1.376153
2004-02-04 08:36:29 51°9.699 2°35.285 7.635736 3.505158 33.912394 1.275024
2004-02-04 08:36:34 51°9.703 2°35.287 7.635736 3.505158 33.912394 1.275024
2004-02-04 08:36:39 51°9.708 2°35.289 7.637341 3.505158 33.911575 1.275024
2004-02-04 08:36:44 51°9.712 2°35.292 7.638411 3.505369 33.913841 1.342443
2004-02-04 08:36:49 51°9.716 2°35.294 7.638411 3.505369 33.914659 1.376153
2004-02-04 08:36:54 51°9.72 2°35.297 7.636514 3.505264 33.914345 1.275024
2004-02-04 08:36:59 51°9.724 2°35.3 7.636319 3.505158 33.912394 1.241315
2004-02-04 08:37:04 51°9.728 2°35.303 7.636319 3.505158 33.912394 1.241315
2004-02-04 08:37:09 51°9.732 2°35.307 7.637146 3.505264 33.911072 1.241315
2004-02-04 08:37:14 51°9.736 2°35.31 7.635881 3.505369 33.915478 1.342443
2004-02-04 08:37:19 51°9.74 2°35.314 7.63593 3.505158 33.912394 1.241315
2004-02-04 08:37:24 51°9.743 2°35.317 7.635249 3.506212 33.921267 1.241315
2004-02-04 08:37:29 51°9.747 2°35.321 7.63486 3.506317 33.9224 1.241315
2004-02-04 08:37:34 51°9.751 2°35.325 7.63486 3.506317 33.9224 1.241315
2004-02-04 08:37:38 51°9.754 2°35.329 7.634373 3.505158 33.91403 1.275024
2004-02-04 08:37:44 51°9.758 2°35.334 7.635881 3.506949 33.932472 1.241315
2004-02-04 08:37:49 51°9.761 2°35.338 7.636952 3.506844 33.930521 1.207606
2004-02-04 08:37:54 51°9.765 2°35.343 7.636222 3.506633 33.928255 1.308734
2004-02-04 08:38:00 51°9.769 2°35.348 7.63773 3.50558 33.918562 1.409862
2004-02-04 08:38:04 51°9.771 2°35.352 7.63773 3.50558 33.918562 1.409862
2004-02-04 08:38:10 51°9.775 2°35.358 7.638606 3.506739 33.928569 1.241315
2004-02-04 08:38:14 51°9.778 2°35.362 7.637925 3.506423 33.925989 1.376153
2004-02-04 08:38:20 51°9.781 2°35.368 7.637925 3.506633 33.927436 1.308734
2004-02-04 08:38:24 51°9.784 2°35.372 7.640357 3.506633 33.927436 1.477281
2004-02-04 08:38:29 51°9.787 2°35.378 7.639968 3.506633 33.926617 1.308734